<?xml version="1.0" encoding="UTF-8" standalone="no" ?>
<gpx xmlns="http://www.topografix.com/GPX/1/1" xmlns:xsi="http://www.w3.org/2001/XMLSchema-instance" xsi:schemaLocation="http://www.topografix.com/GPX/1/1 http://www.topografix.com/GPX/1/1/gpx.xsd" version="1.1" creator="VisuGPX - https://www.visugpx.com">
  <metadata>
    <name>Randonnée Escaudain le 06.11.2011</name>
    <desc><![CDATA[Ballade d\'escaudain du 06 Novembre 2011. Sympathique mais beaucoup de route]]></desc>
  </metadata>
  <trk>
    <name><![CDATA[ACTIVE LOG090204]]></name>
    <trkseg>
      <trkpt lat="50.33226" lon="3.33772">
        <ele>20.371</ele>
        <time>2011-11-06T08:02:02Z</time>
      </trkpt>
      <trkpt lat="50.33217" lon="3.33831">
        <ele>22.364</ele>
        <time>2011-11-06T08:02:19Z</time>
      </trkpt>
      <trkpt lat="50.33204" lon="3.33886">
        <ele>20.714</ele>
        <time>2011-11-06T08:02:33Z</time>
      </trkpt>
      <trkpt lat="50.33205" lon="3.33896">
        <ele>22.689</ele>
        <time>2011-11-06T08:02:35Z</time>
      </trkpt>
      <trkpt lat="50.33203" lon="3.33905">
        <ele>24.251</ele>
        <time>2011-11-06T08:02:37Z</time>
      </trkpt>
      <trkpt lat="50.33175" lon="3.33956">
        <ele>25.523</ele>
        <time>2011-11-06T08:02:50Z</time>
      </trkpt>
      <trkpt lat="50.33181" lon="3.33993">
        <ele>24.567</ele>
        <time>2011-11-06T08:02:56Z</time>
      </trkpt>
      <trkpt lat="50.33205" lon="3.3406">
        <ele>22.633</ele>
        <time>2011-11-06T08:03:04Z</time>
      </trkpt>
      <trkpt lat="50.33222" lon="3.34075">
        <ele>24.707</ele>
        <time>2011-11-06T08:03:08Z</time>
      </trkpt>
      <trkpt lat="50.33291" lon="3.34118">
        <ele>24.366</ele>
        <time>2011-11-06T08:03:25Z</time>
      </trkpt>
      <trkpt lat="50.33312" lon="3.34139">
        <ele>25.807</ele>
        <time>2011-11-06T08:03:38Z</time>
      </trkpt>
      <trkpt lat="50.33316" lon="3.34143">
        <ele>25.374</ele>
        <time>2011-11-06T08:04:27Z</time>
      </trkpt>
      <trkpt lat="50.33327" lon="3.34156">
        <ele>24.926</ele>
        <time>2011-11-06T08:04:32Z</time>
      </trkpt>
      <trkpt lat="50.33336" lon="3.34169">
        <ele>24.683</ele>
        <time>2011-11-06T08:04:35Z</time>
      </trkpt>
      <trkpt lat="50.33344" lon="3.34196">
        <ele>24.577</ele>
        <time>2011-11-06T08:04:39Z</time>
      </trkpt>
      <trkpt lat="50.33377" lon="3.34319">
        <ele>24.251</ele>
        <time>2011-11-06T08:04:54Z</time>
      </trkpt>
      <trkpt lat="50.33381" lon="3.34333">
        <ele>22.789</ele>
        <time>2011-11-06T08:04:56Z</time>
      </trkpt>
      <trkpt lat="50.33395" lon="3.34386">
        <ele>24.452</ele>
        <time>2011-11-06T08:05:03Z</time>
      </trkpt>
      <trkpt lat="50.33412" lon="3.344">
        <ele>24.312</ele>
        <time>2011-11-06T08:05:07Z</time>
      </trkpt>
      <trkpt lat="50.33436" lon="3.34409">
        <ele>24.365</ele>
        <time>2011-11-06T08:05:12Z</time>
      </trkpt>
      <trkpt lat="50.33455" lon="3.34403">
        <ele>24.764</ele>
        <time>2011-11-06T08:05:16Z</time>
      </trkpt>
      <trkpt lat="50.33499" lon="3.34378">
        <ele>25.854</ele>
        <time>2011-11-06T08:05:27Z</time>
      </trkpt>
      <trkpt lat="50.33513" lon="3.34378">
        <ele>26.043</ele>
        <time>2011-11-06T08:05:30Z</time>
      </trkpt>
      <trkpt lat="50.33579" lon="3.34383">
        <ele>25.528</ele>
        <time>2011-11-06T08:05:45Z</time>
      </trkpt>
      <trkpt lat="50.33587" lon="3.34349">
        <ele>26.521</ele>
        <time>2011-11-06T08:05:50Z</time>
      </trkpt>
      <trkpt lat="50.33591" lon="3.34326">
        <ele>26.624</ele>
        <time>2011-11-06T08:05:53Z</time>
      </trkpt>
      <trkpt lat="50.33596" lon="3.34205">
        <ele>26.307</ele>
        <time>2011-11-06T08:06:08Z</time>
      </trkpt>
      <trkpt lat="50.3359" lon="3.34056">
        <ele>27.436</ele>
        <time>2011-11-06T08:06:26Z</time>
      </trkpt>
      <trkpt lat="50.33583" lon="3.33934">
        <ele>26.631</ele>
        <time>2011-11-06T08:06:40Z</time>
      </trkpt>
      <trkpt lat="50.33609" lon="3.33914">
        <ele>25.95</ele>
        <time>2011-11-06T08:06:46Z</time>
      </trkpt>
      <trkpt lat="50.3366" lon="3.33911">
        <ele>24.309</ele>
        <time>2011-11-06T08:06:53Z</time>
      </trkpt>
      <trkpt lat="50.33688" lon="3.33905">
        <ele>26.334</ele>
        <time>2011-11-06T08:06:57Z</time>
      </trkpt>
      <trkpt lat="50.33706" lon="3.33869">
        <ele>26.965</ele>
        <time>2011-11-06T08:07:03Z</time>
      </trkpt>
      <trkpt lat="50.33734" lon="3.33765">
        <ele>26.195</ele>
        <time>2011-11-06T08:07:15Z</time>
      </trkpt>
      <trkpt lat="50.33764" lon="3.33643">
        <ele>27.32</ele>
        <time>2011-11-06T08:07:29Z</time>
      </trkpt>
      <trkpt lat="50.33808" lon="3.33482">
        <ele>28.759</ele>
        <time>2011-11-06T08:07:47Z</time>
      </trkpt>
      <trkpt lat="50.33827" lon="3.33422">
        <ele>29.688</ele>
        <time>2011-11-06T08:07:55Z</time>
      </trkpt>
      <trkpt lat="50.33843" lon="3.33367">
        <ele>29.206</ele>
        <time>2011-11-06T08:08:06Z</time>
      </trkpt>
      <trkpt lat="50.33847" lon="3.33352">
        <ele>29.859</ele>
        <time>2011-11-06T08:08:14Z</time>
      </trkpt>
      <trkpt lat="50.33849" lon="3.33365">
        <ele>30.03</ele>
        <time>2011-11-06T08:08:19Z</time>
      </trkpt>
      <trkpt lat="50.33852" lon="3.33401">
        <ele>29.28</ele>
        <time>2011-11-06T08:08:26Z</time>
      </trkpt>
      <trkpt lat="50.33862" lon="3.33483">
        <ele>27.073</ele>
        <time>2011-11-06T08:08:37Z</time>
      </trkpt>
      <trkpt lat="50.33862" lon="3.33532">
        <ele>28.007</ele>
        <time>2011-11-06T08:08:42Z</time>
      </trkpt>
      <trkpt lat="50.3386" lon="3.33555">
        <ele>25.389</ele>
        <time>2011-11-06T08:08:44Z</time>
      </trkpt>
      <trkpt lat="50.33856" lon="3.33651">
        <ele>26.701</ele>
        <time>2011-11-06T08:08:53Z</time>
      </trkpt>
      <trkpt lat="50.3386" lon="3.33714">
        <ele>25.503</ele>
        <time>2011-11-06T08:08:59Z</time>
      </trkpt>
      <trkpt lat="50.3385" lon="3.33796">
        <ele>25.85</ele>
        <time>2011-11-06T08:09:07Z</time>
      </trkpt>
      <trkpt lat="50.33856" lon="3.33921">
        <ele>25.918</ele>
        <time>2011-11-06T08:09:20Z</time>
      </trkpt>
      <trkpt lat="50.33856" lon="3.3401">
        <ele>25.517</ele>
        <time>2011-11-06T08:09:29Z</time>
      </trkpt>
      <trkpt lat="50.33852" lon="3.34063">
        <ele>25.681</ele>
        <time>2011-11-06T08:09:34Z</time>
      </trkpt>
      <trkpt lat="50.3386" lon="3.34102">
        <ele>25.396</ele>
        <time>2011-11-06T08:09:38Z</time>
      </trkpt>
      <trkpt lat="50.3387" lon="3.34126">
        <ele>26.372</ele>
        <time>2011-11-06T08:09:41Z</time>
      </trkpt>
      <trkpt lat="50.3389" lon="3.34183">
        <ele>26.972</ele>
        <time>2011-11-06T08:09:48Z</time>
      </trkpt>
      <trkpt lat="50.33906" lon="3.34219">
        <ele>27.459</ele>
        <time>2011-11-06T08:09:53Z</time>
      </trkpt>
      <trkpt lat="50.33949" lon="3.34278">
        <ele>25.568</ele>
        <time>2011-11-06T08:10:02Z</time>
      </trkpt>
      <trkpt lat="50.33988" lon="3.34319">
        <ele>26.83</ele>
        <time>2011-11-06T08:10:10Z</time>
      </trkpt>
      <trkpt lat="50.34032" lon="3.34346">
        <ele>26.267</ele>
        <time>2011-11-06T08:10:18Z</time>
      </trkpt>
      <trkpt lat="50.34078" lon="3.34376">
        <ele>25.007</ele>
        <time>2011-11-06T08:10:28Z</time>
      </trkpt>
      <trkpt lat="50.34087" lon="3.34383">
        <ele>25.118</ele>
        <time>2011-11-06T08:10:30Z</time>
      </trkpt>
      <trkpt lat="50.34111" lon="3.34402">
        <ele>24.045</ele>
        <time>2011-11-06T08:10:35Z</time>
      </trkpt>
      <trkpt lat="50.34142" lon="3.34436">
        <ele>25.68</ele>
        <time>2011-11-06T08:10:42Z</time>
      </trkpt>
      <trkpt lat="50.34173" lon="3.34423">
        <ele>25.552</ele>
        <time>2011-11-06T08:10:50Z</time>
      </trkpt>
      <trkpt lat="50.34246" lon="3.34422">
        <ele>25.844</ele>
        <time>2011-11-06T08:11:06Z</time>
      </trkpt>
      <trkpt lat="50.34279" lon="3.34423">
        <ele>26.964</ele>
        <time>2011-11-06T08:11:15Z</time>
      </trkpt>
      <trkpt lat="50.34287" lon="3.3442">
        <ele>27.042</ele>
        <time>2011-11-06T08:11:17Z</time>
      </trkpt>
      <trkpt lat="50.34309" lon="3.34416">
        <ele>27.376</ele>
        <time>2011-11-06T08:11:22Z</time>
      </trkpt>
      <trkpt lat="50.34324" lon="3.3444">
        <ele>27.129</ele>
        <time>2011-11-06T08:11:29Z</time>
      </trkpt>
      <trkpt lat="50.34331" lon="3.3444">
        <ele>27.586</ele>
        <time>2011-11-06T08:11:31Z</time>
      </trkpt>
      <trkpt lat="50.34356" lon="3.34391">
        <ele>26.856</ele>
        <time>2011-11-06T08:11:41Z</time>
      </trkpt>
      <trkpt lat="50.34388" lon="3.34376">
        <ele>27.344</ele>
        <time>2011-11-06T08:11:50Z</time>
      </trkpt>
      <trkpt lat="50.34394" lon="3.34374">
        <ele>27.96</ele>
        <time>2011-11-06T08:11:52Z</time>
      </trkpt>
      <trkpt lat="50.34411" lon="3.34441">
        <ele>27.006</ele>
        <time>2011-11-06T08:11:56Z</time>
      </trkpt>
      <trkpt lat="50.34436" lon="3.34462">
        <ele>28.102</ele>
        <time>2011-11-06T08:12:06Z</time>
      </trkpt>
      <trkpt lat="50.34437" lon="3.34461">
        <ele>28.377</ele>
        <time>2011-11-06T08:12:07Z</time>
      </trkpt>
      <trkpt lat="50.34456" lon="3.34463">
        <ele>28.514</ele>
        <time>2011-11-06T08:12:17Z</time>
      </trkpt>
      <trkpt lat="50.34462" lon="3.34473">
        <ele>28.259</ele>
        <time>2011-11-06T08:12:23Z</time>
      </trkpt>
      <trkpt lat="50.34468" lon="3.34473">
        <ele>28.624</ele>
        <time>2011-11-06T08:12:28Z</time>
      </trkpt>
      <trkpt lat="50.34478" lon="3.34471">
        <ele>28.438</ele>
        <time>2011-11-06T08:12:39Z</time>
      </trkpt>
      <trkpt lat="50.34481" lon="3.34472">
        <ele>28.089</ele>
        <time>2011-11-06T08:12:44Z</time>
      </trkpt>
      <trkpt lat="50.34486" lon="3.34476">
        <ele>28.018</ele>
        <time>2011-11-06T08:12:48Z</time>
      </trkpt>
      <trkpt lat="50.34496" lon="3.34481">
        <ele>28.571</ele>
        <time>2011-11-06T08:12:58Z</time>
      </trkpt>
      <trkpt lat="50.34519" lon="3.34489">
        <ele>28.608</ele>
        <time>2011-11-06T08:13:13Z</time>
      </trkpt>
      <trkpt lat="50.34529" lon="3.34495">
        <ele>29.262</ele>
        <time>2011-11-06T08:13:26Z</time>
      </trkpt>
      <trkpt lat="50.3454" lon="3.34499">
        <ele>28.807</ele>
        <time>2011-11-06T08:13:39Z</time>
      </trkpt>
      <trkpt lat="50.34554" lon="3.34505">
        <ele>29.007</ele>
        <time>2011-11-06T08:13:50Z</time>
      </trkpt>
      <trkpt lat="50.34556" lon="3.34507">
        <ele>29.066</ele>
        <time>2011-11-06T08:14:05Z</time>
      </trkpt>
      <trkpt lat="50.34557" lon="3.34507">
        <ele>29.079</ele>
        <time>2011-11-06T08:14:10Z</time>
      </trkpt>
      <trkpt lat="50.34565" lon="3.34509">
        <ele>29.37</ele>
        <time>2011-11-06T08:14:24Z</time>
      </trkpt>
      <trkpt lat="50.34567" lon="3.34509">
        <ele>29.325</ele>
        <time>2011-11-06T08:14:38Z</time>
      </trkpt>
      <trkpt lat="50.34569" lon="3.34514">
        <ele>29.422</ele>
        <time>2011-11-06T08:16:27Z</time>
      </trkpt>
      <trkpt lat="50.34568" lon="3.34517">
        <ele>29.273</ele>
        <time>2011-11-06T08:16:29Z</time>
      </trkpt>
      <trkpt lat="50.34566" lon="3.34526">
        <ele>31.037</ele>
        <time>2011-11-06T08:16:34Z</time>
      </trkpt>
      <trkpt lat="50.34572" lon="3.34534">
        <ele>32.481</ele>
        <time>2011-11-06T08:16:47Z</time>
      </trkpt>
      <trkpt lat="50.34573" lon="3.34536">
        <ele>32.349</ele>
        <time>2011-11-06T08:16:49Z</time>
      </trkpt>
      <trkpt lat="50.34577" lon="3.34539">
        <ele>31.715</ele>
        <time>2011-11-06T08:16:51Z</time>
      </trkpt>
      <trkpt lat="50.34586" lon="3.34554">
        <ele>35.51</ele>
        <time>2011-11-06T08:17:03Z</time>
      </trkpt>
      <trkpt lat="50.34589" lon="3.34557">
        <ele>35.425</ele>
        <time>2011-11-06T08:17:22Z</time>
      </trkpt>
      <trkpt lat="50.34587" lon="3.34555">
        <ele>35.736</ele>
        <time>2011-11-06T08:17:44Z</time>
      </trkpt>
      <trkpt lat="50.34593" lon="3.34555">
        <ele>36.019</ele>
        <time>2011-11-06T08:17:58Z</time>
      </trkpt>
      <trkpt lat="50.34595" lon="3.34556">
        <ele>35.933</ele>
        <time>2011-11-06T08:18:39Z</time>
      </trkpt>
      <trkpt lat="50.34601" lon="3.34556">
        <ele>35.681</ele>
        <time>2011-11-06T08:18:58Z</time>
      </trkpt>
      <trkpt lat="50.34607" lon="3.34557">
        <ele>35.722</ele>
        <time>2011-11-06T08:19:02Z</time>
      </trkpt>
      <trkpt lat="50.34625" lon="3.3456">
        <ele>36.273</ele>
        <time>2011-11-06T08:19:13Z</time>
      </trkpt>
      <trkpt lat="50.34629" lon="3.34563">
        <ele>36.455</ele>
        <time>2011-11-06T08:19:29Z</time>
      </trkpt>
      <trkpt lat="50.34643" lon="3.34573">
        <ele>37.177</ele>
        <time>2011-11-06T08:20:04Z</time>
      </trkpt>
      <trkpt lat="50.34657" lon="3.34584">
        <ele>37.94</ele>
        <time>2011-11-06T08:20:17Z</time>
      </trkpt>
      <trkpt lat="50.34671" lon="3.346">
        <ele>37.62</ele>
        <time>2011-11-06T08:20:41Z</time>
      </trkpt>
      <trkpt lat="50.34673" lon="3.34602">
        <ele>37.618</ele>
        <time>2011-11-06T08:20:42Z</time>
      </trkpt>
      <trkpt lat="50.34681" lon="3.34596">
        <ele>38.506</ele>
        <time>2011-11-06T08:20:47Z</time>
      </trkpt>
      <trkpt lat="50.34721" lon="3.34583">
        <ele>35.5</ele>
        <time>2011-11-06T08:20:49Z</time>
      </trkpt>
      <trkpt lat="50.34721" lon="3.34574">
        <ele>30.661</ele>
        <time>2011-11-06T08:20:50Z</time>
      </trkpt>
      <trkpt lat="50.34721" lon="3.34566">
        <ele>30.659</ele>
        <time>2011-11-06T08:20:51Z</time>
      </trkpt>
      <trkpt lat="50.34721" lon="3.34559">
        <ele>29.856</ele>
        <time>2011-11-06T08:20:52Z</time>
      </trkpt>
      <trkpt lat="50.34721" lon="3.34541">
        <ele>30.651</ele>
        <time>2011-11-06T08:20:55Z</time>
      </trkpt>
      <trkpt lat="50.34721" lon="3.34522">
        <ele>30.208</ele>
        <time>2011-11-06T08:20:59Z</time>
      </trkpt>
      <trkpt lat="50.34721" lon="3.34514">
        <ele>29.695</ele>
        <time>2011-11-06T08:21:04Z</time>
      </trkpt>
      <trkpt lat="50.34721" lon="3.34525">
        <ele>29.977</ele>
        <time>2011-11-06T08:21:08Z</time>
      </trkpt>
      <trkpt lat="50.34721" lon="3.34543">
        <ele>32.124</ele>
        <time>2011-11-06T08:21:13Z</time>
      </trkpt>
      <trkpt lat="50.34721" lon="3.34557">
        <ele>31.062</ele>
        <time>2011-11-06T08:21:16Z</time>
      </trkpt>
      <trkpt lat="50.34721" lon="3.34572">
        <ele>29.213</ele>
        <time>2011-11-06T08:21:18Z</time>
      </trkpt>
      <trkpt lat="50.34721" lon="3.34579">
        <ele>29.213</ele>
        <time>2011-11-06T08:21:19Z</time>
      </trkpt>
      <trkpt lat="50.34721" lon="3.3459">
        <ele>31.726</ele>
        <time>2011-11-06T08:21:23Z</time>
      </trkpt>
      <trkpt lat="50.34721" lon="3.34601">
        <ele>29.629</ele>
        <time>2011-11-06T08:21:26Z</time>
      </trkpt>
      <trkpt lat="50.34696" lon="3.34606">
        <ele>31.166</ele>
        <time>2011-11-06T08:21:28Z</time>
      </trkpt>
      <trkpt lat="50.34693" lon="3.34608">
        <ele>32.39</ele>
        <time>2011-11-06T08:21:30Z</time>
      </trkpt>
      <trkpt lat="50.34692" lon="3.34609">
        <ele>33.025</ele>
        <time>2011-11-06T08:21:31Z</time>
      </trkpt>
      <trkpt lat="50.34692" lon="3.34612">
        <ele>33.943</ele>
        <time>2011-11-06T08:21:41Z</time>
      </trkpt>
      <trkpt lat="50.34691" lon="3.34612">
        <ele>33.559</ele>
        <time>2011-11-06T08:21:59Z</time>
      </trkpt>
      <trkpt lat="50.34691" lon="3.34612">
        <ele>34.224</ele>
        <time>2011-11-06T08:24:52Z</time>
      </trkpt>
      <trkpt lat="50.34695" lon="3.34616">
        <ele>33.483</ele>
        <time>2011-11-06T08:24:55Z</time>
      </trkpt>
      <trkpt lat="50.34702" lon="3.34662">
        <ele>34.16</ele>
        <time>2011-11-06T08:25:09Z</time>
      </trkpt>
      <trkpt lat="50.34713" lon="3.34691">
        <ele>32.895</ele>
        <time>2011-11-06T08:25:16Z</time>
      </trkpt>
      <trkpt lat="50.3471" lon="3.3472">
        <ele>35.847</ele>
        <time>2011-11-06T08:25:24Z</time>
      </trkpt>
      <trkpt lat="50.3471" lon="3.3472">
        <ele>37.572</ele>
        <time>2011-11-06T08:25:26Z</time>
      </trkpt>
      <trkpt lat="50.3471" lon="3.3472">
        <ele>38.446</ele>
        <time>2011-11-06T08:25:30Z</time>
      </trkpt>
      <trkpt lat="50.34706" lon="3.34747">
        <ele>36.921</ele>
        <time>2011-11-06T08:25:36Z</time>
      </trkpt>
      <trkpt lat="50.34703" lon="3.3476">
        <ele>35.603</ele>
        <time>2011-11-06T08:25:38Z</time>
      </trkpt>
      <trkpt lat="50.34703" lon="3.34762">
        <ele>34.44</ele>
        <time>2011-11-06T08:25:42Z</time>
      </trkpt>
      <trkpt lat="50.34704" lon="3.34754">
        <ele>33.683</ele>
        <time>2011-11-06T08:25:45Z</time>
      </trkpt>
      <trkpt lat="50.34705" lon="3.34749">
        <ele>32.81</ele>
        <time>2011-11-06T08:25:47Z</time>
      </trkpt>
      <trkpt lat="50.34709" lon="3.34726">
        <ele>33.573</ele>
        <time>2011-11-06T08:25:54Z</time>
      </trkpt>
      <trkpt lat="50.3471" lon="3.34723">
        <ele>33.662</ele>
        <time>2011-11-06T08:25:55Z</time>
      </trkpt>
      <trkpt lat="50.34711" lon="3.34717">
        <ele>34.076</ele>
        <time>2011-11-06T08:25:58Z</time>
      </trkpt>
      <trkpt lat="50.34711" lon="3.34713">
        <ele>34.873</ele>
        <time>2011-11-06T08:26:02Z</time>
      </trkpt>
      <trkpt lat="50.34711" lon="3.34713">
        <ele>35.024</ele>
        <time>2011-11-06T08:26:30Z</time>
      </trkpt>
      <trkpt lat="50.34721" lon="3.34721">
        <ele>34.579</ele>
        <time>2011-11-06T08:26:34Z</time>
      </trkpt>
      <trkpt lat="50.34729" lon="3.34727">
        <ele>32.906</ele>
        <time>2011-11-06T08:26:36Z</time>
      </trkpt>
      <trkpt lat="50.34711" lon="3.34713">
        <ele>34.335</ele>
        <time>2011-11-06T08:26:40Z</time>
      </trkpt>
      <trkpt lat="50.34713" lon="3.34703">
        <ele>35.714</ele>
        <time>2011-11-06T08:26:42Z</time>
      </trkpt>
      <trkpt lat="50.34715" lon="3.3469">
        <ele>35.092</ele>
        <time>2011-11-06T08:26:44Z</time>
      </trkpt>
      <trkpt lat="50.34783" lon="3.34687">
        <ele>32.191</ele>
        <time>2011-11-06T08:26:47Z</time>
      </trkpt>
      <trkpt lat="50.34795" lon="3.34667">
        <ele>29.819</ele>
        <time>2011-11-06T08:26:49Z</time>
      </trkpt>
      <trkpt lat="50.348" lon="3.34657">
        <ele>29.865</ele>
        <time>2011-11-06T08:26:50Z</time>
      </trkpt>
      <trkpt lat="50.34811" lon="3.34626">
        <ele>30.797</ele>
        <time>2011-11-06T08:26:53Z</time>
      </trkpt>
      <trkpt lat="50.34814" lon="3.34608">
        <ele>32.514</ele>
        <time>2011-11-06T08:26:56Z</time>
      </trkpt>
      <trkpt lat="50.34816" lon="3.34605">
        <ele>33.648</ele>
        <time>2011-11-06T08:26:58Z</time>
      </trkpt>
      <trkpt lat="50.34831" lon="3.34604">
        <ele>31.523</ele>
        <time>2011-11-06T08:27:03Z</time>
      </trkpt>
      <trkpt lat="50.34836" lon="3.34589">
        <ele>28.593</ele>
        <time>2011-11-06T08:27:05Z</time>
      </trkpt>
      <trkpt lat="50.34835" lon="3.34581">
        <ele>29.371</ele>
        <time>2011-11-06T08:27:06Z</time>
      </trkpt>
      <trkpt lat="50.3481" lon="3.34523">
        <ele>30.988</ele>
        <time>2011-11-06T08:27:18Z</time>
      </trkpt>
      <trkpt lat="50.34801" lon="3.34539">
        <ele>31.138</ele>
        <time>2011-11-06T08:27:22Z</time>
      </trkpt>
      <trkpt lat="50.34797" lon="3.34567">
        <ele>30.414</ele>
        <time>2011-11-06T08:27:26Z</time>
      </trkpt>
      <trkpt lat="50.34808" lon="3.34597">
        <ele>32.116</ele>
        <time>2011-11-06T08:27:32Z</time>
      </trkpt>
      <trkpt lat="50.34811" lon="3.3461">
        <ele>33.59</ele>
        <time>2011-11-06T08:27:38Z</time>
      </trkpt>
      <trkpt lat="50.34804" lon="3.3462">
        <ele>32.569</ele>
        <time>2011-11-06T08:27:41Z</time>
      </trkpt>
      <trkpt lat="50.34798" lon="3.34637">
        <ele>30.275</ele>
        <time>2011-11-06T08:27:43Z</time>
      </trkpt>
      <trkpt lat="50.34792" lon="3.34652">
        <ele>27.863</ele>
        <time>2011-11-06T08:27:45Z</time>
      </trkpt>
      <trkpt lat="50.34772" lon="3.34684">
        <ele>28.674</ele>
        <time>2011-11-06T08:27:52Z</time>
      </trkpt>
      <trkpt lat="50.34739" lon="3.34712">
        <ele>31.704</ele>
        <time>2011-11-06T08:28:01Z</time>
      </trkpt>
      <trkpt lat="50.34722" lon="3.34706">
        <ele>31.959</ele>
        <time>2011-11-06T08:28:07Z</time>
      </trkpt>
      <trkpt lat="50.34715" lon="3.34692">
        <ele>33.072</ele>
        <time>2011-11-06T08:28:09Z</time>
      </trkpt>
      <trkpt lat="50.34718" lon="3.34676">
        <ele>33.2</ele>
        <time>2011-11-06T08:28:11Z</time>
      </trkpt>
      <trkpt lat="50.34735" lon="3.34665">
        <ele>32.409</ele>
        <time>2011-11-06T08:28:16Z</time>
      </trkpt>
      <trkpt lat="50.34745" lon="3.34662">
        <ele>32.77</ele>
        <time>2011-11-06T08:28:20Z</time>
      </trkpt>
      <trkpt lat="50.3472" lon="3.34644">
        <ele>29.02</ele>
        <time>2011-11-06T08:28:23Z</time>
      </trkpt>
      <trkpt lat="50.3472" lon="3.34638">
        <ele>30.644</ele>
        <time>2011-11-06T08:28:25Z</time>
      </trkpt>
      <trkpt lat="50.34721" lon="3.34628">
        <ele>29.071</ele>
        <time>2011-11-06T08:28:27Z</time>
      </trkpt>
      <trkpt lat="50.34721" lon="3.34626">
        <ele>30.437</ele>
        <time>2011-11-06T08:28:30Z</time>
      </trkpt>
      <trkpt lat="50.34784" lon="3.34611">
        <ele>29.63</ele>
        <time>2011-11-06T08:28:34Z</time>
      </trkpt>
      <trkpt lat="50.34786" lon="3.3455">
        <ele>30.065</ele>
        <time>2011-11-06T08:28:46Z</time>
      </trkpt>
      <trkpt lat="50.34785" lon="3.34543">
        <ele>30.088</ele>
        <time>2011-11-06T08:28:47Z</time>
      </trkpt>
      <trkpt lat="50.34775" lon="3.34524">
        <ele>31.713</ele>
        <time>2011-11-06T08:28:53Z</time>
      </trkpt>
      <trkpt lat="50.34769" lon="3.34523">
        <ele>32.76</ele>
        <time>2011-11-06T08:28:57Z</time>
      </trkpt>
      <trkpt lat="50.34721" lon="3.34528">
        <ele>29.741</ele>
        <time>2011-11-06T08:29:00Z</time>
      </trkpt>
      <trkpt lat="50.34746" lon="3.34533">
        <ele>30.84</ele>
        <time>2011-11-06T08:29:06Z</time>
      </trkpt>
      <trkpt lat="50.3474" lon="3.34536">
        <ele>32.312</ele>
        <time>2011-11-06T08:29:15Z</time>
      </trkpt>
      <trkpt lat="50.34732" lon="3.34539">
        <ele>30.04</ele>
        <time>2011-11-06T08:29:17Z</time>
      </trkpt>
      <trkpt lat="50.34721" lon="3.34515">
        <ele>28.682</ele>
        <time>2011-11-06T08:29:22Z</time>
      </trkpt>
      <trkpt lat="50.34723" lon="3.34499">
        <ele>29.045</ele>
        <time>2011-11-06T08:29:24Z</time>
      </trkpt>
      <trkpt lat="50.34718" lon="3.3447">
        <ele>29.838</ele>
        <time>2011-11-06T08:29:29Z</time>
      </trkpt>
      <trkpt lat="50.34711" lon="3.34464">
        <ele>29.678</ele>
        <time>2011-11-06T08:29:32Z</time>
      </trkpt>
      <trkpt lat="50.3471" lon="3.34463">
        <ele>30.096</ele>
        <time>2011-11-06T08:29:39Z</time>
      </trkpt>
      <trkpt lat="50.34697" lon="3.34441">
        <ele>32.204</ele>
        <time>2011-11-06T08:29:54Z</time>
      </trkpt>
      <trkpt lat="50.34723" lon="3.34398">
        <ele>34.147</ele>
        <time>2011-11-06T08:30:04Z</time>
      </trkpt>
      <trkpt lat="50.34737" lon="3.344">
        <ele>34.323</ele>
        <time>2011-11-06T08:30:14Z</time>
      </trkpt>
      <trkpt lat="50.34708" lon="3.34461">
        <ele>33.23</ele>
        <time>2011-11-06T08:30:18Z</time>
      </trkpt>
      <trkpt lat="50.34719" lon="3.34471">
        <ele>27.775</ele>
        <time>2011-11-06T08:30:20Z</time>
      </trkpt>
      <trkpt lat="50.34723" lon="3.34484">
        <ele>28.69</ele>
        <time>2011-11-06T08:30:25Z</time>
      </trkpt>
      <trkpt lat="50.34762" lon="3.34451">
        <ele>29.593</ele>
        <time>2011-11-06T08:30:28Z</time>
      </trkpt>
      <trkpt lat="50.34765" lon="3.34447">
        <ele>29.712</ele>
        <time>2011-11-06T08:30:30Z</time>
      </trkpt>
      <trkpt lat="50.34768" lon="3.34443">
        <ele>30.191</ele>
        <time>2011-11-06T08:30:37Z</time>
      </trkpt>
      <trkpt lat="50.34772" lon="3.34422">
        <ele>31.549</ele>
        <time>2011-11-06T08:30:44Z</time>
      </trkpt>
      <trkpt lat="50.34771" lon="3.3442">
        <ele>32.833</ele>
        <time>2011-11-06T08:30:56Z</time>
      </trkpt>
      <trkpt lat="50.34773" lon="3.34417">
        <ele>33.671</ele>
        <time>2011-11-06T08:30:59Z</time>
      </trkpt>
      <trkpt lat="50.34776" lon="3.34415">
        <ele>34.569</ele>
        <time>2011-11-06T08:31:03Z</time>
      </trkpt>
      <trkpt lat="50.34793" lon="3.34419">
        <ele>34.508</ele>
        <time>2011-11-06T08:31:14Z</time>
      </trkpt>
      <trkpt lat="50.34806" lon="3.34425">
        <ele>34.287</ele>
        <time>2011-11-06T08:31:19Z</time>
      </trkpt>
      <trkpt lat="50.34824" lon="3.34443">
        <ele>31.357</ele>
        <time>2011-11-06T08:31:23Z</time>
      </trkpt>
      <trkpt lat="50.3483" lon="3.34449">
        <ele>27.672</ele>
        <time>2011-11-06T08:31:24Z</time>
      </trkpt>
      <trkpt lat="50.34851" lon="3.34453">
        <ele>26.101</ele>
        <time>2011-11-06T08:31:27Z</time>
      </trkpt>
      <trkpt lat="50.3487" lon="3.3445">
        <ele>28.753</ele>
        <time>2011-11-06T08:31:32Z</time>
      </trkpt>
      <trkpt lat="50.3488" lon="3.34444">
        <ele>28.163</ele>
        <time>2011-11-06T08:31:37Z</time>
      </trkpt>
      <trkpt lat="50.34877" lon="3.34426">
        <ele>27.356</ele>
        <time>2011-11-06T08:31:42Z</time>
      </trkpt>
      <trkpt lat="50.34866" lon="3.34415">
        <ele>27.856</ele>
        <time>2011-11-06T08:31:49Z</time>
      </trkpt>
      <trkpt lat="50.34824" lon="3.34345">
        <ele>24.005</ele>
        <time>2011-11-06T08:31:53Z</time>
      </trkpt>
      <trkpt lat="50.34824" lon="3.34345">
        <ele>25.097</ele>
        <time>2011-11-06T08:31:57Z</time>
      </trkpt>
      <trkpt lat="50.34834" lon="3.34349">
        <ele>26.128</ele>
        <time>2011-11-06T08:32:06Z</time>
      </trkpt>
      <trkpt lat="50.34827" lon="3.34346">
        <ele>26.318</ele>
        <time>2011-11-06T08:32:09Z</time>
      </trkpt>
      <trkpt lat="50.34824" lon="3.34315">
        <ele>26.614</ele>
        <time>2011-11-06T08:32:14Z</time>
      </trkpt>
      <trkpt lat="50.34825" lon="3.34305">
        <ele>25.67</ele>
        <time>2011-11-06T08:32:16Z</time>
      </trkpt>
      <trkpt lat="50.34826" lon="3.34236">
        <ele>25.753</ele>
        <time>2011-11-06T08:32:31Z</time>
      </trkpt>
      <trkpt lat="50.3484" lon="3.34229">
        <ele>25.252</ele>
        <time>2011-11-06T08:32:36Z</time>
      </trkpt>
      <trkpt lat="50.3488" lon="3.34229">
        <ele>23.913</ele>
        <time>2011-11-06T08:32:50Z</time>
      </trkpt>
      <trkpt lat="50.34933" lon="3.34248">
        <ele>22.803</ele>
        <time>2011-11-06T08:33:01Z</time>
      </trkpt>
      <trkpt lat="50.34988" lon="3.34273">
        <ele>23.492</ele>
        <time>2011-11-06T08:33:16Z</time>
      </trkpt>
      <trkpt lat="50.35053" lon="3.34294">
        <ele>22.917</ele>
        <time>2011-11-06T08:33:34Z</time>
      </trkpt>
      <trkpt lat="50.3509" lon="3.34304">
        <ele>21.077</ele>
        <time>2011-11-06T08:33:43Z</time>
      </trkpt>
      <trkpt lat="50.35169" lon="3.34327">
        <ele>19.051</ele>
        <time>2011-11-06T08:33:59Z</time>
      </trkpt>
      <trkpt lat="50.35192" lon="3.34333">
        <ele>20.853</ele>
        <time>2011-11-06T08:34:04Z</time>
      </trkpt>
      <trkpt lat="50.35196" lon="3.34335">
        <ele>19.705</ele>
        <time>2011-11-06T08:34:05Z</time>
      </trkpt>
      <trkpt lat="50.35208" lon="3.34339">
        <ele>21.077</ele>
        <time>2011-11-06T08:34:08Z</time>
      </trkpt>
      <trkpt lat="50.35223" lon="3.34344">
        <ele>19.534</ele>
        <time>2011-11-06T08:34:11Z</time>
      </trkpt>
      <trkpt lat="50.35244" lon="3.34351">
        <ele>17.354</ele>
        <time>2011-11-06T08:34:15Z</time>
      </trkpt>
      <trkpt lat="50.3526" lon="3.34359">
        <ele>18.694</ele>
        <time>2011-11-06T08:34:18Z</time>
      </trkpt>
      <trkpt lat="50.35325" lon="3.34389">
        <ele>16.85</ele>
        <time>2011-11-06T08:34:31Z</time>
      </trkpt>
      <trkpt lat="50.35339" lon="3.34398">
        <ele>18.143</ele>
        <time>2011-11-06T08:34:34Z</time>
      </trkpt>
      <trkpt lat="50.35435" lon="3.34464">
        <ele>16.263</ele>
        <time>2011-11-06T08:34:55Z</time>
      </trkpt>
      <trkpt lat="50.35486" lon="3.34514">
        <ele>16.607</ele>
        <time>2011-11-06T08:35:08Z</time>
      </trkpt>
      <trkpt lat="50.35499" lon="3.34525">
        <ele>16.839</ele>
        <time>2011-11-06T08:35:11Z</time>
      </trkpt>
      <trkpt lat="50.35547" lon="3.34558">
        <ele>16.204</ele>
        <time>2011-11-06T08:35:22Z</time>
      </trkpt>
      <trkpt lat="50.35561" lon="3.34567">
        <ele>17.462</ele>
        <time>2011-11-06T08:35:25Z</time>
      </trkpt>
      <trkpt lat="50.35578" lon="3.34578">
        <ele>15.071</ele>
        <time>2011-11-06T08:35:29Z</time>
      </trkpt>
      <trkpt lat="50.35637" lon="3.34617">
        <ele>16.134</ele>
        <time>2011-11-06T08:35:43Z</time>
      </trkpt>
      <trkpt lat="50.35645" lon="3.34623">
        <ele>16.326</ele>
        <time>2011-11-06T08:35:45Z</time>
      </trkpt>
      <trkpt lat="50.35658" lon="3.34633">
        <ele>14.434</ele>
        <time>2011-11-06T08:35:48Z</time>
      </trkpt>
      <trkpt lat="50.35679" lon="3.3465">
        <ele>16.788</ele>
        <time>2011-11-06T08:35:53Z</time>
      </trkpt>
      <trkpt lat="50.35687" lon="3.34656">
        <ele>15.069</ele>
        <time>2011-11-06T08:35:55Z</time>
      </trkpt>
      <trkpt lat="50.35695" lon="3.34663">
        <ele>13.813</ele>
        <time>2011-11-06T08:35:57Z</time>
      </trkpt>
      <trkpt lat="50.35787" lon="3.34712">
        <ele>14.657</ele>
        <time>2011-11-06T08:36:18Z</time>
      </trkpt>
      <trkpt lat="50.35803" lon="3.34721">
        <ele>11.683</ele>
        <time>2011-11-06T08:36:22Z</time>
      </trkpt>
      <trkpt lat="50.35838" lon="3.34746">
        <ele>11.575</ele>
        <time>2011-11-06T08:36:31Z</time>
      </trkpt>
      <trkpt lat="50.35879" lon="3.3478">
        <ele>9.64</ele>
        <time>2011-11-06T08:36:44Z</time>
      </trkpt>
      <trkpt lat="50.35906" lon="3.34823">
        <ele>8.441</ele>
        <time>2011-11-06T08:36:54Z</time>
      </trkpt>
      <trkpt lat="50.35915" lon="3.34875">
        <ele>7.892</ele>
        <time>2011-11-06T08:37:01Z</time>
      </trkpt>
      <trkpt lat="50.35916" lon="3.34888">
        <ele>11.801</ele>
        <time>2011-11-06T08:37:03Z</time>
      </trkpt>
      <trkpt lat="50.35916" lon="3.34894">
        <ele>11.804</ele>
        <time>2011-11-06T08:37:04Z</time>
      </trkpt>
      <trkpt lat="50.35911" lon="3.34959">
        <ele>13.202</ele>
        <time>2011-11-06T08:37:17Z</time>
      </trkpt>
      <trkpt lat="50.35884" lon="3.35083">
        <ele>11.319</ele>
        <time>2011-11-06T08:37:38Z</time>
      </trkpt>
      <trkpt lat="50.35862" lon="3.35187">
        <ele>9.175</ele>
        <time>2011-11-06T08:37:53Z</time>
      </trkpt>
      <trkpt lat="50.35831" lon="3.35357">
        <ele>9.874</ele>
        <time>2011-11-06T08:38:19Z</time>
      </trkpt>
      <trkpt lat="50.35823" lon="3.35396">
        <ele>9.141</ele>
        <time>2011-11-06T08:38:25Z</time>
      </trkpt>
      <trkpt lat="50.35819" lon="3.35417">
        <ele>10.512</ele>
        <time>2011-11-06T08:38:28Z</time>
      </trkpt>
      <trkpt lat="50.35791" lon="3.35558">
        <ele>11.152</ele>
        <time>2011-11-06T08:38:48Z</time>
      </trkpt>
      <trkpt lat="50.35761" lon="3.35696">
        <ele>12.794</ele>
        <time>2011-11-06T08:39:10Z</time>
      </trkpt>
      <trkpt lat="50.35749" lon="3.35744">
        <ele>13.721</ele>
        <time>2011-11-06T08:39:19Z</time>
      </trkpt>
      <trkpt lat="50.35747" lon="3.35752">
        <ele>14.138</ele>
        <time>2011-11-06T08:39:21Z</time>
      </trkpt>
      <trkpt lat="50.35717" lon="3.35806">
        <ele>15.463</ele>
        <time>2011-11-06T08:39:35Z</time>
      </trkpt>
      <trkpt lat="50.3571" lon="3.35858">
        <ele>13.163</ele>
        <time>2011-11-06T08:39:43Z</time>
      </trkpt>
      <trkpt lat="50.35707" lon="3.35901">
        <ele>12.684</ele>
        <time>2011-11-06T08:39:50Z</time>
      </trkpt>
      <trkpt lat="50.35706" lon="3.35913">
        <ele>14.125</ele>
        <time>2011-11-06T08:39:52Z</time>
      </trkpt>
      <trkpt lat="50.35697" lon="3.35994">
        <ele>15.967</ele>
        <time>2011-11-06T08:40:04Z</time>
      </trkpt>
      <trkpt lat="50.35654" lon="3.36142">
        <ele>17.95</ele>
        <time>2011-11-06T08:40:27Z</time>
      </trkpt>
      <trkpt lat="50.35637" lon="3.36201">
        <ele>19.105</ele>
        <time>2011-11-06T08:40:40Z</time>
      </trkpt>
      <trkpt lat="50.35626" lon="3.36273">
        <ele>18.991</ele>
        <time>2011-11-06T08:40:57Z</time>
      </trkpt>
      <trkpt lat="50.35622" lon="3.36302">
        <ele>20.167</ele>
        <time>2011-11-06T08:41:07Z</time>
      </trkpt>
      <trkpt lat="50.35622" lon="3.36302">
        <ele>20.213</ele>
        <time>2011-11-06T08:41:10Z</time>
      </trkpt>
      <trkpt lat="50.3562" lon="3.36334">
        <ele>22.482</ele>
        <time>2011-11-06T08:41:25Z</time>
      </trkpt>
      <trkpt lat="50.3562" lon="3.36334">
        <ele>20.564</ele>
        <time>2011-11-06T08:41:45Z</time>
      </trkpt>
      <trkpt lat="50.35607" lon="3.3644">
        <ele>21.375</ele>
        <time>2011-11-06T08:41:59Z</time>
      </trkpt>
      <trkpt lat="50.35601" lon="3.36582">
        <ele>22.725</ele>
        <time>2011-11-06T08:42:22Z</time>
      </trkpt>
      <trkpt lat="50.35612" lon="3.36714">
        <ele>22.407</ele>
        <time>2011-11-06T08:42:41Z</time>
      </trkpt>
      <trkpt lat="50.35616" lon="3.368">
        <ele>24.078</ele>
        <time>2011-11-06T08:42:54Z</time>
      </trkpt>
      <trkpt lat="50.35612" lon="3.36845">
        <ele>22.166</ele>
        <time>2011-11-06T08:43:01Z</time>
      </trkpt>
      <trkpt lat="50.3561" lon="3.36863">
        <ele>23.454</ele>
        <time>2011-11-06T08:43:04Z</time>
      </trkpt>
      <trkpt lat="50.35585" lon="3.37016">
        <ele>24.807</ele>
        <time>2011-11-06T08:43:28Z</time>
      </trkpt>
      <trkpt lat="50.35567" lon="3.37079">
        <ele>25.207</ele>
        <time>2011-11-06T08:43:40Z</time>
      </trkpt>
      <trkpt lat="50.35525" lon="3.37211">
        <ele>27.016</ele>
        <time>2011-11-06T08:44:02Z</time>
      </trkpt>
      <trkpt lat="50.3551" lon="3.37261">
        <ele>27.97</ele>
        <time>2011-11-06T08:44:11Z</time>
      </trkpt>
      <trkpt lat="50.35491" lon="3.3736">
        <ele>28.202</ele>
        <time>2011-11-06T08:44:28Z</time>
      </trkpt>
      <trkpt lat="50.35476" lon="3.37457">
        <ele>27.935</ele>
        <time>2011-11-06T08:44:42Z</time>
      </trkpt>
      <trkpt lat="50.3546" lon="3.37588">
        <ele>25.482</ele>
        <time>2011-11-06T08:44:58Z</time>
      </trkpt>
      <trkpt lat="50.35457" lon="3.37663">
        <ele>26.427</ele>
        <time>2011-11-06T08:45:07Z</time>
      </trkpt>
      <trkpt lat="50.3545" lon="3.3783">
        <ele>26.269</ele>
        <time>2011-11-06T08:45:29Z</time>
      </trkpt>
      <trkpt lat="50.35437" lon="3.3801">
        <ele>26.038</ele>
        <time>2011-11-06T08:45:54Z</time>
      </trkpt>
      <trkpt lat="50.35427" lon="3.38152">
        <ele>25.106</ele>
        <time>2011-11-06T08:46:12Z</time>
      </trkpt>
      <trkpt lat="50.35426" lon="3.38235">
        <ele>25.498</ele>
        <time>2011-11-06T08:46:24Z</time>
      </trkpt>
      <trkpt lat="50.35438" lon="3.38241">
        <ele>23.26</ele>
        <time>2011-11-06T08:46:28Z</time>
      </trkpt>
      <trkpt lat="50.35441" lon="3.3824">
        <ele>22.771</ele>
        <time>2011-11-06T08:46:29Z</time>
      </trkpt>
      <trkpt lat="50.35471" lon="3.38241">
        <ele>21.209</ele>
        <time>2011-11-06T08:46:37Z</time>
      </trkpt>
      <trkpt lat="50.35481" lon="3.38243">
        <ele>23.166</ele>
        <time>2011-11-06T08:46:40Z</time>
      </trkpt>
      <trkpt lat="50.35496" lon="3.38246">
        <ele>23.824</ele>
        <time>2011-11-06T08:46:44Z</time>
      </trkpt>
      <trkpt lat="50.3552" lon="3.3825">
        <ele>21.323</ele>
        <time>2011-11-06T08:46:51Z</time>
      </trkpt>
      <trkpt lat="50.35563" lon="3.38259">
        <ele>20.505</ele>
        <time>2011-11-06T08:47:06Z</time>
      </trkpt>
      <trkpt lat="50.35621" lon="3.38272">
        <ele>21.917</ele>
        <time>2011-11-06T08:47:25Z</time>
      </trkpt>
      <trkpt lat="50.3564" lon="3.38277">
        <ele>21.095</ele>
        <time>2011-11-06T08:47:30Z</time>
      </trkpt>
      <trkpt lat="50.35744" lon="3.38278">
        <ele>22.579</ele>
        <time>2011-11-06T08:47:57Z</time>
      </trkpt>
      <trkpt lat="50.35822" lon="3.38277">
        <ele>20.582</ele>
        <time>2011-11-06T08:48:14Z</time>
      </trkpt>
      <trkpt lat="50.35862" lon="3.38275">
        <ele>20.483</ele>
        <time>2011-11-06T08:48:23Z</time>
      </trkpt>
      <trkpt lat="50.35907" lon="3.38272">
        <ele>21.379</ele>
        <time>2011-11-06T08:48:33Z</time>
      </trkpt>
      <trkpt lat="50.35937" lon="3.38266">
        <ele>21.413</ele>
        <time>2011-11-06T08:48:40Z</time>
      </trkpt>
      <trkpt lat="50.36001" lon="3.38241">
        <ele>21.9</ele>
        <time>2011-11-06T08:48:55Z</time>
      </trkpt>
      <trkpt lat="50.36107" lon="3.38188">
        <ele>22.335</ele>
        <time>2011-11-06T08:49:19Z</time>
      </trkpt>
      <trkpt lat="50.36126" lon="3.38189">
        <ele>20.034</ele>
        <time>2011-11-06T08:49:23Z</time>
      </trkpt>
      <trkpt lat="50.36215" lon="3.38203">
        <ele>19.071</ele>
        <time>2011-11-06T08:49:42Z</time>
      </trkpt>
      <trkpt lat="50.36256" lon="3.38208">
        <ele>17.687</ele>
        <time>2011-11-06T08:49:51Z</time>
      </trkpt>
      <trkpt lat="50.3627" lon="3.38209">
        <ele>19.228</ele>
        <time>2011-11-06T08:49:54Z</time>
      </trkpt>
      <trkpt lat="50.36297" lon="3.38208">
        <ele>20.846</ele>
        <time>2011-11-06T08:50:00Z</time>
      </trkpt>
      <trkpt lat="50.36355" lon="3.38192">
        <ele>23.857</ele>
        <time>2011-11-06T08:50:13Z</time>
      </trkpt>
      <trkpt lat="50.36373" lon="3.38187">
        <ele>21.498</ele>
        <time>2011-11-06T08:50:17Z</time>
      </trkpt>
      <trkpt lat="50.36422" lon="3.38174">
        <ele>19.04</ele>
        <time>2011-11-06T08:50:28Z</time>
      </trkpt>
      <trkpt lat="50.36476" lon="3.38161">
        <ele>19.65</ele>
        <time>2011-11-06T08:50:40Z</time>
      </trkpt>
      <trkpt lat="50.36592" lon="3.3815">
        <ele>19.029</ele>
        <time>2011-11-06T08:51:03Z</time>
      </trkpt>
      <trkpt lat="50.36643" lon="3.38133">
        <ele>19.244</ele>
        <time>2011-11-06T08:51:13Z</time>
      </trkpt>
      <trkpt lat="50.3667" lon="3.38122">
        <ele>17.11</ele>
        <time>2011-11-06T08:51:19Z</time>
      </trkpt>
      <trkpt lat="50.36694" lon="3.3811">
        <ele>18.418</ele>
        <time>2011-11-06T08:51:25Z</time>
      </trkpt>
      <trkpt lat="50.36709" lon="3.381">
        <ele>18.229</ele>
        <time>2011-11-06T08:51:29Z</time>
      </trkpt>
      <trkpt lat="50.3676" lon="3.3807">
        <ele>17.757</ele>
        <time>2011-11-06T08:51:45Z</time>
      </trkpt>
      <trkpt lat="50.36761" lon="3.3807">
        <ele>19.088</ele>
        <time>2011-11-06T08:51:59Z</time>
      </trkpt>
      <trkpt lat="50.36761" lon="3.3807">
        <ele>15.949</ele>
        <time>2011-11-06T08:53:13Z</time>
      </trkpt>
      <trkpt lat="50.36761" lon="3.3807">
        <ele>15.95</ele>
        <time>2011-11-06T08:53:14Z</time>
      </trkpt>
      <trkpt lat="50.36761" lon="3.3807">
        <ele>17.041</ele>
        <time>2011-11-06T08:53:33Z</time>
      </trkpt>
      <trkpt lat="50.36761" lon="3.3807">
        <ele>17.847</ele>
        <time>2011-11-06T08:53:56Z</time>
      </trkpt>
      <trkpt lat="50.3676" lon="3.38064">
        <ele>17.833</ele>
        <time>2011-11-06T08:54:02Z</time>
      </trkpt>
      <trkpt lat="50.36745" lon="3.37968">
        <ele>19.016</ele>
        <time>2011-11-06T08:54:18Z</time>
      </trkpt>
      <trkpt lat="50.36736" lon="3.37869">
        <ele>20.294</ele>
        <time>2011-11-06T08:54:32Z</time>
      </trkpt>
      <trkpt lat="50.36718" lon="3.37752">
        <ele>20.706</ele>
        <time>2011-11-06T08:54:49Z</time>
      </trkpt>
      <trkpt lat="50.36687" lon="3.37593">
        <ele>21.496</ele>
        <time>2011-11-06T08:55:13Z</time>
      </trkpt>
      <trkpt lat="50.36649" lon="3.37448">
        <ele>21.712</ele>
        <time>2011-11-06T08:55:37Z</time>
      </trkpt>
      <trkpt lat="50.36613" lon="3.37334">
        <ele>21.537</ele>
        <time>2011-11-06T08:55:57Z</time>
      </trkpt>
      <trkpt lat="50.36573" lon="3.37224">
        <ele>20.965</ele>
        <time>2011-11-06T08:56:14Z</time>
      </trkpt>
      <trkpt lat="50.36527" lon="3.37074">
        <ele>18.585</ele>
        <time>2011-11-06T08:56:26Z</time>
      </trkpt>
      <trkpt lat="50.36471" lon="3.36901">
        <ele>15.686</ele>
        <time>2011-11-06T08:56:39Z</time>
      </trkpt>
      <trkpt lat="50.36412" lon="3.36743">
        <ele>14.667</ele>
        <time>2011-11-06T08:56:51Z</time>
      </trkpt>
      <trkpt lat="50.36387" lon="3.36676">
        <ele>13.881</ele>
        <time>2011-11-06T08:56:56Z</time>
      </trkpt>
      <trkpt lat="50.36367" lon="3.36625">
        <ele>12.508</ele>
        <time>2011-11-06T08:57:00Z</time>
      </trkpt>
      <trkpt lat="50.36327" lon="3.36464">
        <ele>12.223</ele>
        <time>2011-11-06T08:57:12Z</time>
      </trkpt>
      <trkpt lat="50.363" lon="3.36348">
        <ele>11.861</ele>
        <time>2011-11-06T08:57:21Z</time>
      </trkpt>
      <trkpt lat="50.36249" lon="3.36245">
        <ele>11.072</ele>
        <time>2011-11-06T08:57:31Z</time>
      </trkpt>
      <trkpt lat="50.36239" lon="3.36224">
        <ele>11.668</ele>
        <time>2011-11-06T08:57:33Z</time>
      </trkpt>
      <trkpt lat="50.36232" lon="3.36119">
        <ele>8.425</ele>
        <time>2011-11-06T08:57:41Z</time>
      </trkpt>
      <trkpt lat="50.36232" lon="3.36087">
        <ele>7.996</ele>
        <time>2011-11-06T08:57:44Z</time>
      </trkpt>
      <trkpt lat="50.36232" lon="3.36081">
        <ele>9.987</ele>
        <time>2011-11-06T08:57:46Z</time>
      </trkpt>
      <trkpt lat="50.36222" lon="3.36065">
        <ele>10.22</ele>
        <time>2011-11-06T08:57:48Z</time>
      </trkpt>
      <trkpt lat="50.36144" lon="3.35959">
        <ele>10.635</ele>
        <time>2011-11-06T08:58:08Z</time>
      </trkpt>
      <trkpt lat="50.36126" lon="3.35938">
        <ele>10.803</ele>
        <time>2011-11-06T08:58:12Z</time>
      </trkpt>
      <trkpt lat="50.3612" lon="3.35896">
        <ele>10.319</ele>
        <time>2011-11-06T08:58:17Z</time>
      </trkpt>
      <trkpt lat="50.3613" lon="3.35856">
        <ele>8.216</ele>
        <time>2011-11-06T08:58:21Z</time>
      </trkpt>
      <trkpt lat="50.36145" lon="3.35803">
        <ele>9.731</ele>
        <time>2011-11-06T08:58:26Z</time>
      </trkpt>
      <trkpt lat="50.36185" lon="3.35651">
        <ele>8.045</ele>
        <time>2011-11-06T08:58:40Z</time>
      </trkpt>
      <trkpt lat="50.36215" lon="3.35484">
        <ele>8.6</ele>
        <time>2011-11-06T08:58:56Z</time>
      </trkpt>
      <trkpt lat="50.36245" lon="3.35282">
        <ele>9.151</ele>
        <time>2011-11-06T08:59:15Z</time>
      </trkpt>
      <trkpt lat="50.36247" lon="3.35272">
        <ele>5.351</ele>
        <time>2011-11-06T08:59:16Z</time>
      </trkpt>
      <trkpt lat="50.36249" lon="3.35262">
        <ele>5.352</ele>
        <time>2011-11-06T08:59:17Z</time>
      </trkpt>
      <trkpt lat="50.36254" lon="3.35241">
        <ele>7.143</ele>
        <time>2011-11-06T08:59:19Z</time>
      </trkpt>
      <trkpt lat="50.3626" lon="3.35221">
        <ele>8.498</ele>
        <time>2011-11-06T08:59:21Z</time>
      </trkpt>
      <trkpt lat="50.36267" lon="3.35191">
        <ele>7.175</ele>
        <time>2011-11-06T08:59:24Z</time>
      </trkpt>
      <trkpt lat="50.36305" lon="3.35028">
        <ele>9.329</ele>
        <time>2011-11-06T08:59:41Z</time>
      </trkpt>
      <trkpt lat="50.36307" lon="3.34993">
        <ele>9.262</ele>
        <time>2011-11-06T08:59:45Z</time>
      </trkpt>
      <trkpt lat="50.36291" lon="3.34977">
        <ele>9.724</ele>
        <time>2011-11-06T08:59:50Z</time>
      </trkpt>
      <trkpt lat="50.36201" lon="3.35008">
        <ele>9.401</ele>
        <time>2011-11-06T09:00:06Z</time>
      </trkpt>
      <trkpt lat="50.36124" lon="3.35022">
        <ele>10.254</ele>
        <time>2011-11-06T09:00:18Z</time>
      </trkpt>
      <trkpt lat="50.36112" lon="3.35021">
        <ele>10.11</ele>
        <time>2011-11-06T09:00:20Z</time>
      </trkpt>
      <trkpt lat="50.36068" lon="3.34992">
        <ele>10.788</ele>
        <time>2011-11-06T09:00:28Z</time>
      </trkpt>
      <trkpt lat="50.36051" lon="3.34966">
        <ele>10.915</ele>
        <time>2011-11-06T09:00:32Z</time>
      </trkpt>
      <trkpt lat="50.36029" lon="3.34916">
        <ele>12.136</ele>
        <time>2011-11-06T09:00:39Z</time>
      </trkpt>
      <trkpt lat="50.36015" lon="3.34892">
        <ele>12.018</ele>
        <time>2011-11-06T09:00:43Z</time>
      </trkpt>
      <trkpt lat="50.35939" lon="3.34837">
        <ele>13.262</ele>
        <time>2011-11-06T09:01:00Z</time>
      </trkpt>
      <trkpt lat="50.35918" lon="3.34827">
        <ele>14.084</ele>
        <time>2011-11-06T09:01:05Z</time>
      </trkpt>
      <trkpt lat="50.359" lon="3.34811">
        <ele>14.051</ele>
        <time>2011-11-06T09:01:09Z</time>
      </trkpt>
      <trkpt lat="50.35886" lon="3.3479">
        <ele>14.169</ele>
        <time>2011-11-06T09:01:13Z</time>
      </trkpt>
      <trkpt lat="50.35877" lon="3.3476">
        <ele>14.4</ele>
        <time>2011-11-06T09:01:17Z</time>
      </trkpt>
      <trkpt lat="50.35876" lon="3.34609">
        <ele>14.224</ele>
        <time>2011-11-06T09:01:36Z</time>
      </trkpt>
      <trkpt lat="50.35892" lon="3.34437">
        <ele>15.897</ele>
        <time>2011-11-06T09:01:56Z</time>
      </trkpt>
      <trkpt lat="50.35914" lon="3.34282">
        <ele>18.877</ele>
        <time>2011-11-06T09:02:15Z</time>
      </trkpt>
      <trkpt lat="50.35921" lon="3.34232">
        <ele>18.629</ele>
        <time>2011-11-06T09:02:21Z</time>
      </trkpt>
      <trkpt lat="50.35926" lon="3.34165">
        <ele>16.588</ele>
        <time>2011-11-06T09:02:29Z</time>
      </trkpt>
      <trkpt lat="50.35936" lon="3.33984">
        <ele>17.99</ele>
        <time>2011-11-06T09:02:52Z</time>
      </trkpt>
      <trkpt lat="50.35937" lon="3.33929">
        <ele>18.068</ele>
        <time>2011-11-06T09:02:59Z</time>
      </trkpt>
      <trkpt lat="50.35938" lon="3.33789">
        <ele>17.942</ele>
        <time>2011-11-06T09:03:16Z</time>
      </trkpt>
      <trkpt lat="50.35917" lon="3.33612">
        <ele>20.214</ele>
        <time>2011-11-06T09:03:38Z</time>
      </trkpt>
      <trkpt lat="50.35908" lon="3.33534">
        <ele>18.131</ele>
        <time>2011-11-06T09:03:47Z</time>
      </trkpt>
      <trkpt lat="50.35898" lon="3.33525">
        <ele>19.449</ele>
        <time>2011-11-06T09:03:50Z</time>
      </trkpt>
      <trkpt lat="50.35887" lon="3.33528">
        <ele>20.181</ele>
        <time>2011-11-06T09:03:52Z</time>
      </trkpt>
      <trkpt lat="50.35782" lon="3.3355">
        <ele>20.859</ele>
        <time>2011-11-06T09:04:12Z</time>
      </trkpt>
      <trkpt lat="50.3568" lon="3.3354">
        <ele>22.118</ele>
        <time>2011-11-06T09:04:31Z</time>
      </trkpt>
      <trkpt lat="50.35614" lon="3.33538">
        <ele>22.929</ele>
        <time>2011-11-06T09:04:43Z</time>
      </trkpt>
      <trkpt lat="50.35512" lon="3.33578">
        <ele>24.326</ele>
        <time>2011-11-06T09:05:02Z</time>
      </trkpt>
      <trkpt lat="50.35502" lon="3.33581">
        <ele>23.674</ele>
        <time>2011-11-06T09:05:04Z</time>
      </trkpt>
      <trkpt lat="50.35498" lon="3.33583">
        <ele>22.529</ele>
        <time>2011-11-06T09:05:10Z</time>
      </trkpt>
      <trkpt lat="50.35503" lon="3.33556">
        <ele>23.01</ele>
        <time>2011-11-06T09:05:12Z</time>
      </trkpt>
      <trkpt lat="50.3552" lon="3.33528">
        <ele>22.832</ele>
        <time>2011-11-06T09:05:17Z</time>
      </trkpt>
      <trkpt lat="50.3556" lon="3.33445">
        <ele>22.243</ele>
        <time>2011-11-06T09:05:30Z</time>
      </trkpt>
      <trkpt lat="50.35609" lon="3.33291">
        <ele>22.705</ele>
        <time>2011-11-06T09:05:51Z</time>
      </trkpt>
      <trkpt lat="50.35631" lon="3.33191">
        <ele>21.973</ele>
        <time>2011-11-06T09:06:04Z</time>
      </trkpt>
      <trkpt lat="50.35641" lon="3.33139">
        <ele>22.614</ele>
        <time>2011-11-06T09:06:11Z</time>
      </trkpt>
      <trkpt lat="50.35656" lon="3.33005">
        <ele>22.556</ele>
        <time>2011-11-06T09:06:29Z</time>
      </trkpt>
      <trkpt lat="50.35659" lon="3.32823">
        <ele>20.993</ele>
        <time>2011-11-06T09:06:52Z</time>
      </trkpt>
      <trkpt lat="50.35664" lon="3.32579">
        <ele>18.552</ele>
        <time>2011-11-06T09:07:19Z</time>
      </trkpt>
      <trkpt lat="50.35665" lon="3.32385">
        <ele>18.088</ele>
        <time>2011-11-06T09:07:41Z</time>
      </trkpt>
      <trkpt lat="50.35665" lon="3.32186">
        <ele>17.948</ele>
        <time>2011-11-06T09:08:05Z</time>
      </trkpt>
      <trkpt lat="50.35673" lon="3.32082">
        <ele>18.383</ele>
        <time>2011-11-06T09:08:18Z</time>
      </trkpt>
      <trkpt lat="50.35694" lon="3.31944">
        <ele>16.628</ele>
        <time>2011-11-06T09:08:38Z</time>
      </trkpt>
      <trkpt lat="50.35689" lon="3.31869">
        <ele>16.775</ele>
        <time>2011-11-06T09:08:51Z</time>
      </trkpt>
      <trkpt lat="50.35686" lon="3.31856">
        <ele>16.324</ele>
        <time>2011-11-06T09:08:54Z</time>
      </trkpt>
      <trkpt lat="50.35679" lon="3.31848">
        <ele>17.143</ele>
        <time>2011-11-06T09:08:58Z</time>
      </trkpt>
      <trkpt lat="50.35606" lon="3.31854">
        <ele>17.564</ele>
        <time>2011-11-06T09:09:13Z</time>
      </trkpt>
      <trkpt lat="50.35501" lon="3.31844">
        <ele>19.097</ele>
        <time>2011-11-06T09:09:35Z</time>
      </trkpt>
      <trkpt lat="50.35369" lon="3.31833">
        <ele>22.427</ele>
        <time>2011-11-06T09:10:00Z</time>
      </trkpt>
      <trkpt lat="50.35296" lon="3.31831">
        <ele>23.684</ele>
        <time>2011-11-06T09:10:13Z</time>
      </trkpt>
      <trkpt lat="50.35266" lon="3.3183">
        <ele>22.904</ele>
        <time>2011-11-06T09:10:18Z</time>
      </trkpt>
      <trkpt lat="50.35242" lon="3.31825">
        <ele>22.638</ele>
        <time>2011-11-06T09:10:22Z</time>
      </trkpt>
      <trkpt lat="50.35173" lon="3.31859">
        <ele>24.206</ele>
        <time>2011-11-06T09:10:35Z</time>
      </trkpt>
      <trkpt lat="50.35081" lon="3.3189">
        <ele>25.251</ele>
        <time>2011-11-06T09:10:55Z</time>
      </trkpt>
      <trkpt lat="50.35011" lon="3.31915">
        <ele>26.931</ele>
        <time>2011-11-06T09:11:11Z</time>
      </trkpt>
      <trkpt lat="50.34931" lon="3.31961">
        <ele>28.206</ele>
        <time>2011-11-06T09:11:30Z</time>
      </trkpt>
      <trkpt lat="50.34822" lon="3.32019">
        <ele>29.462</ele>
        <time>2011-11-06T09:11:55Z</time>
      </trkpt>
      <trkpt lat="50.3473" lon="3.32075">
        <ele>29.937</ele>
        <time>2011-11-06T09:12:16Z</time>
      </trkpt>
      <trkpt lat="50.34619" lon="3.3215">
        <ele>31.976</ele>
        <time>2011-11-06T09:12:41Z</time>
      </trkpt>
      <trkpt lat="50.34499" lon="3.32226">
        <ele>33.408</ele>
        <time>2011-11-06T09:13:08Z</time>
      </trkpt>
      <trkpt lat="50.34479" lon="3.32239">
        <ele>33.626</ele>
        <time>2011-11-06T09:13:12Z</time>
      </trkpt>
      <trkpt lat="50.34461" lon="3.32261">
        <ele>32.912</ele>
        <time>2011-11-06T09:13:16Z</time>
      </trkpt>
      <trkpt lat="50.34417" lon="3.32338">
        <ele>33.003</ele>
        <time>2011-11-06T09:13:28Z</time>
      </trkpt>
      <trkpt lat="50.34339" lon="3.32416">
        <ele>33.233</ele>
        <time>2011-11-06T09:13:45Z</time>
      </trkpt>
      <trkpt lat="50.34248" lon="3.32486">
        <ele>33.289</ele>
        <time>2011-11-06T09:14:03Z</time>
      </trkpt>
      <trkpt lat="50.34144" lon="3.32564">
        <ele>34.175</ele>
        <time>2011-11-06T09:14:25Z</time>
      </trkpt>
      <trkpt lat="50.34135" lon="3.32574">
        <ele>34.599</ele>
        <time>2011-11-06T09:14:28Z</time>
      </trkpt>
      <trkpt lat="50.34126" lon="3.3255">
        <ele>34.656</ele>
        <time>2011-11-06T09:14:35Z</time>
      </trkpt>
      <trkpt lat="50.34109" lon="3.32499">
        <ele>34.854</ele>
        <time>2011-11-06T09:14:49Z</time>
      </trkpt>
      <trkpt lat="50.34107" lon="3.32487">
        <ele>34.962</ele>
        <time>2011-11-06T09:14:55Z</time>
      </trkpt>
      <trkpt lat="50.34081" lon="3.32485">
        <ele>36.103</ele>
        <time>2011-11-06T09:15:11Z</time>
      </trkpt>
      <trkpt lat="50.34063" lon="3.32471">
        <ele>36.162</ele>
        <time>2011-11-06T09:15:26Z</time>
      </trkpt>
      <trkpt lat="50.34057" lon="3.32463">
        <ele>35.432</ele>
        <time>2011-11-06T09:15:29Z</time>
      </trkpt>
      <trkpt lat="50.3405" lon="3.32463">
        <ele>37.378</ele>
        <time>2011-11-06T09:15:32Z</time>
      </trkpt>
      <trkpt lat="50.34039" lon="3.32466">
        <ele>35.53</ele>
        <time>2011-11-06T09:15:34Z</time>
      </trkpt>
      <trkpt lat="50.33986" lon="3.32479">
        <ele>34.998</ele>
        <time>2011-11-06T09:15:45Z</time>
      </trkpt>
      <trkpt lat="50.33976" lon="3.32508">
        <ele>35.393</ele>
        <time>2011-11-06T09:15:56Z</time>
      </trkpt>
      <trkpt lat="50.33976" lon="3.32508">
        <ele>35.197</ele>
        <time>2011-11-06T09:17:34Z</time>
      </trkpt>
      <trkpt lat="50.33976" lon="3.32508">
        <ele>35.296</ele>
        <time>2011-11-06T09:19:53Z</time>
      </trkpt>
      <trkpt lat="50.33976" lon="3.32508">
        <ele>35.483</ele>
        <time>2011-11-06T09:20:07Z</time>
      </trkpt>
      <trkpt lat="50.33953" lon="3.32536">
        <ele>34.602</ele>
        <time>2011-11-06T09:20:16Z</time>
      </trkpt>
      <trkpt lat="50.3388" lon="3.32588">
        <ele>33.675</ele>
        <time>2011-11-06T09:20:32Z</time>
      </trkpt>
      <trkpt lat="50.3385" lon="3.32554">
        <ele>31.951</ele>
        <time>2011-11-06T09:20:40Z</time>
      </trkpt>
      <trkpt lat="50.3385" lon="3.32546">
        <ele>32.414</ele>
        <time>2011-11-06T09:20:41Z</time>
      </trkpt>
      <trkpt lat="50.33854" lon="3.32399">
        <ele>33.348</ele>
        <time>2011-11-06T09:21:01Z</time>
      </trkpt>
      <trkpt lat="50.3385" lon="3.32308">
        <ele>34.275</ele>
        <time>2011-11-06T09:21:17Z</time>
      </trkpt>
      <trkpt lat="50.33849" lon="3.32303">
        <ele>35.075</ele>
        <time>2011-11-06T09:21:31Z</time>
      </trkpt>
      <trkpt lat="50.33846" lon="3.32263">
        <ele>35.812</ele>
        <time>2011-11-06T09:22:46Z</time>
      </trkpt>
      <trkpt lat="50.33846" lon="3.32213">
        <ele>35.64</ele>
        <time>2011-11-06T09:22:55Z</time>
      </trkpt>
      <trkpt lat="50.33842" lon="3.32204">
        <ele>35.036</ele>
        <time>2011-11-06T09:23:00Z</time>
      </trkpt>
      <trkpt lat="50.33808" lon="3.32221">
        <ele>35.572</ele>
        <time>2011-11-06T09:23:10Z</time>
      </trkpt>
      <trkpt lat="50.33802" lon="3.32217">
        <ele>33.416</ele>
        <time>2011-11-06T09:23:12Z</time>
      </trkpt>
      <trkpt lat="50.33801" lon="3.32207">
        <ele>32.981</ele>
        <time>2011-11-06T09:23:14Z</time>
      </trkpt>
      <trkpt lat="50.33801" lon="3.32191">
        <ele>33.765</ele>
        <time>2011-11-06T09:23:17Z</time>
      </trkpt>
      <trkpt lat="50.33796" lon="3.3212">
        <ele>33.058</ele>
        <time>2011-11-06T09:23:31Z</time>
      </trkpt>
      <trkpt lat="50.3379" lon="3.32017">
        <ele>31.217</ele>
        <time>2011-11-06T09:23:44Z</time>
      </trkpt>
      <trkpt lat="50.33788" lon="3.31961">
        <ele>31.031</ele>
        <time>2011-11-06T09:23:50Z</time>
      </trkpt>
      <trkpt lat="50.33787" lon="3.3194">
        <ele>31.159</ele>
        <time>2011-11-06T09:23:57Z</time>
      </trkpt>
      <trkpt lat="50.33787" lon="3.3194">
        <ele>32.833</ele>
        <time>2011-11-06T09:24:01Z</time>
      </trkpt>
      <trkpt lat="50.33768" lon="3.31853">
        <ele>34.492</ele>
        <time>2011-11-06T09:24:03Z</time>
      </trkpt>
      <trkpt lat="50.33769" lon="3.31836">
        <ele>35.251</ele>
        <time>2011-11-06T09:24:05Z</time>
      </trkpt>
      <trkpt lat="50.33772" lon="3.31811">
        <ele>37.442</ele>
        <time>2011-11-06T09:24:08Z</time>
      </trkpt>
      <trkpt lat="50.33778" lon="3.31777">
        <ele>39.154</ele>
        <time>2011-11-06T09:24:14Z</time>
      </trkpt>
      <trkpt lat="50.33777" lon="3.31782">
        <ele>39.463</ele>
        <time>2011-11-06T09:24:18Z</time>
      </trkpt>
      <trkpt lat="50.33769" lon="3.31842">
        <ele>38.473</ele>
        <time>2011-11-06T09:24:28Z</time>
      </trkpt>
      <trkpt lat="50.33767" lon="3.31863">
        <ele>38.677</ele>
        <time>2011-11-06T09:24:31Z</time>
      </trkpt>
      <trkpt lat="50.33757" lon="3.31892">
        <ele>38.921</ele>
        <time>2011-11-06T09:24:36Z</time>
      </trkpt>
      <trkpt lat="50.33751" lon="3.31902">
        <ele>39.902</ele>
        <time>2011-11-06T09:24:38Z</time>
      </trkpt>
      <trkpt lat="50.33739" lon="3.31911">
        <ele>41.381</ele>
        <time>2011-11-06T09:24:41Z</time>
      </trkpt>
      <trkpt lat="50.33715" lon="3.3192">
        <ele>41.42</ele>
        <time>2011-11-06T09:24:47Z</time>
      </trkpt>
      <trkpt lat="50.33698" lon="3.31919">
        <ele>42.202</ele>
        <time>2011-11-06T09:24:51Z</time>
      </trkpt>
      <trkpt lat="50.33688" lon="3.31916">
        <ele>41.702</ele>
        <time>2011-11-06T09:24:53Z</time>
      </trkpt>
      <trkpt lat="50.33639" lon="3.31881">
        <ele>36.796</ele>
        <time>2011-11-06T09:25:02Z</time>
      </trkpt>
      <trkpt lat="50.33618" lon="3.31875">
        <ele>38.735</ele>
        <time>2011-11-06T09:25:05Z</time>
      </trkpt>
      <trkpt lat="50.33603" lon="3.31843">
        <ele>37.167</ele>
        <time>2011-11-06T09:25:09Z</time>
      </trkpt>
      <trkpt lat="50.33601" lon="3.31817">
        <ele>34.098</ele>
        <time>2011-11-06T09:25:11Z</time>
      </trkpt>
      <trkpt lat="50.336" lon="3.31804">
        <ele>34.1</ele>
        <time>2011-11-06T09:25:12Z</time>
      </trkpt>
      <trkpt lat="50.33584" lon="3.31723">
        <ele>34.469</ele>
        <time>2011-11-06T09:25:20Z</time>
      </trkpt>
      <trkpt lat="50.33604" lon="3.31699">
        <ele>34.234</ele>
        <time>2011-11-06T09:25:26Z</time>
      </trkpt>
      <trkpt lat="50.33611" lon="3.3172">
        <ele>34.557</ele>
        <time>2011-11-06T09:25:29Z</time>
      </trkpt>
      <trkpt lat="50.3362" lon="3.31793">
        <ele>34.544</ele>
        <time>2011-11-06T09:25:39Z</time>
      </trkpt>
      <trkpt lat="50.33651" lon="3.31841">
        <ele>34.223</ele>
        <time>2011-11-06T09:25:49Z</time>
      </trkpt>
      <trkpt lat="50.33656" lon="3.31841">
        <ele>34.225</ele>
        <time>2011-11-06T09:25:50Z</time>
      </trkpt>
      <trkpt lat="50.33671" lon="3.3184">
        <ele>34.808</ele>
        <time>2011-11-06T09:25:53Z</time>
      </trkpt>
      <trkpt lat="50.33707" lon="3.31822">
        <ele>36.403</ele>
        <time>2011-11-06T09:26:01Z</time>
      </trkpt>
      <trkpt lat="50.33729" lon="3.31774">
        <ele>36.01</ele>
        <time>2011-11-06T09:26:09Z</time>
      </trkpt>
      <trkpt lat="50.3373" lon="3.31749">
        <ele>36.046</ele>
        <time>2011-11-06T09:26:12Z</time>
      </trkpt>
      <trkpt lat="50.33728" lon="3.31721">
        <ele>34.531</ele>
        <time>2011-11-06T09:26:15Z</time>
      </trkpt>
      <trkpt lat="50.33695" lon="3.31607">
        <ele>35.86</ele>
        <time>2011-11-06T09:26:29Z</time>
      </trkpt>
      <trkpt lat="50.33692" lon="3.31572">
        <ele>36.48</ele>
        <time>2011-11-06T09:26:33Z</time>
      </trkpt>
      <trkpt lat="50.3371" lon="3.31505">
        <ele>38.026</ele>
        <time>2011-11-06T09:26:45Z</time>
      </trkpt>
      <trkpt lat="50.33702" lon="3.31495">
        <ele>39.102</ele>
        <time>2011-11-06T09:26:48Z</time>
      </trkpt>
      <trkpt lat="50.33696" lon="3.31491">
        <ele>39.866</ele>
        <time>2011-11-06T09:26:50Z</time>
      </trkpt>
      <trkpt lat="50.33675" lon="3.31509">
        <ele>41.277</ele>
        <time>2011-11-06T09:26:57Z</time>
      </trkpt>
      <trkpt lat="50.33662" lon="3.31502">
        <ele>40.869</ele>
        <time>2011-11-06T09:27:00Z</time>
      </trkpt>
      <trkpt lat="50.33649" lon="3.3149">
        <ele>40.066</ele>
        <time>2011-11-06T09:27:03Z</time>
      </trkpt>
      <trkpt lat="50.33651" lon="3.31463">
        <ele>38.662</ele>
        <time>2011-11-06T09:27:06Z</time>
      </trkpt>
      <trkpt lat="50.33659" lon="3.31425">
        <ele>37.784</ele>
        <time>2011-11-06T09:27:11Z</time>
      </trkpt>
      <trkpt lat="50.33663" lon="3.3137">
        <ele>37.361</ele>
        <time>2011-11-06T09:27:17Z</time>
      </trkpt>
      <trkpt lat="50.33667" lon="3.31348">
        <ele>35.829</ele>
        <time>2011-11-06T09:27:20Z</time>
      </trkpt>
      <trkpt lat="50.33666" lon="3.31342">
        <ele>36.38</ele>
        <time>2011-11-06T09:27:21Z</time>
      </trkpt>
      <trkpt lat="50.3366" lon="3.3128">
        <ele>39.414</ele>
        <time>2011-11-06T09:27:30Z</time>
      </trkpt>
      <trkpt lat="50.33657" lon="3.31254">
        <ele>41.055</ele>
        <time>2011-11-06T09:27:34Z</time>
      </trkpt>
      <trkpt lat="50.33656" lon="3.31243">
        <ele>42.384</ele>
        <time>2011-11-06T09:27:36Z</time>
      </trkpt>
      <trkpt lat="50.33647" lon="3.3117">
        <ele>42.575</ele>
        <time>2011-11-06T09:27:48Z</time>
      </trkpt>
      <trkpt lat="50.33645" lon="3.3116">
        <ele>39.841</ele>
        <time>2011-11-06T09:27:51Z</time>
      </trkpt>
      <trkpt lat="50.33618" lon="3.31165">
        <ele>35.435</ele>
        <time>2011-11-06T09:27:54Z</time>
      </trkpt>
      <trkpt lat="50.33619" lon="3.31182">
        <ele>35.435</ele>
        <time>2011-11-06T09:27:55Z</time>
      </trkpt>
      <trkpt lat="50.33617" lon="3.31202">
        <ele>33.571</ele>
        <time>2011-11-06T09:27:57Z</time>
      </trkpt>
      <trkpt lat="50.33614" lon="3.31237">
        <ele>31.882</ele>
        <time>2011-11-06T09:28:01Z</time>
      </trkpt>
      <trkpt lat="50.33613" lon="3.3127">
        <ele>28.218</ele>
        <time>2011-11-06T09:28:04Z</time>
      </trkpt>
      <trkpt lat="50.33616" lon="3.31292">
        <ele>25.479</ele>
        <time>2011-11-06T09:28:06Z</time>
      </trkpt>
      <trkpt lat="50.33616" lon="3.31301">
        <ele>25.521</ele>
        <time>2011-11-06T09:28:07Z</time>
      </trkpt>
      <trkpt lat="50.33614" lon="3.31329">
        <ele>22.172</ele>
        <time>2011-11-06T09:28:10Z</time>
      </trkpt>
      <trkpt lat="50.33613" lon="3.31334">
        <ele>22.173</ele>
        <time>2011-11-06T09:28:11Z</time>
      </trkpt>
      <trkpt lat="50.33612" lon="3.31339">
        <ele>23.615</ele>
        <time>2011-11-06T09:28:12Z</time>
      </trkpt>
      <trkpt lat="50.33605" lon="3.31346">
        <ele>23.116</ele>
        <time>2011-11-06T09:28:16Z</time>
      </trkpt>
      <trkpt lat="50.33583" lon="3.31336">
        <ele>22.386</ele>
        <time>2011-11-06T09:28:22Z</time>
      </trkpt>
      <trkpt lat="50.33579" lon="3.31376">
        <ele>22.377</ele>
        <time>2011-11-06T09:28:29Z</time>
      </trkpt>
      <trkpt lat="50.33579" lon="3.31397">
        <ele>23.683</ele>
        <time>2011-11-06T09:28:32Z</time>
      </trkpt>
      <trkpt lat="50.33575" lon="3.3141">
        <ele>23.656</ele>
        <time>2011-11-06T09:28:34Z</time>
      </trkpt>
      <trkpt lat="50.33572" lon="3.31424">
        <ele>22.525</ele>
        <time>2011-11-06T09:28:36Z</time>
      </trkpt>
      <trkpt lat="50.33564" lon="3.3144">
        <ele>22.938</ele>
        <time>2011-11-06T09:28:39Z</time>
      </trkpt>
      <trkpt lat="50.33564" lon="3.3144">
        <ele>23.204</ele>
        <time>2011-11-06T09:28:42Z</time>
      </trkpt>
      <trkpt lat="50.3354" lon="3.31452">
        <ele>23.482</ele>
        <time>2011-11-06T09:28:46Z</time>
      </trkpt>
      <trkpt lat="50.33513" lon="3.31418">
        <ele>26.733</ele>
        <time>2011-11-06T09:29:00Z</time>
      </trkpt>
      <trkpt lat="50.33513" lon="3.31418">
        <ele>27.804</ele>
        <time>2011-11-06T09:29:01Z</time>
      </trkpt>
      <trkpt lat="50.33513" lon="3.31375">
        <ele>21.38</ele>
        <time>2011-11-06T09:29:08Z</time>
      </trkpt>
      <trkpt lat="50.33517" lon="3.31362">
        <ele>21.382</ele>
        <time>2011-11-06T09:29:09Z</time>
      </trkpt>
      <trkpt lat="50.3352" lon="3.31354">
        <ele>21.643</ele>
        <time>2011-11-06T09:29:10Z</time>
      </trkpt>
      <trkpt lat="50.33528" lon="3.31341">
        <ele>20.403</ele>
        <time>2011-11-06T09:29:13Z</time>
      </trkpt>
      <trkpt lat="50.33523" lon="3.31314">
        <ele>20.136</ele>
        <time>2011-11-06T09:29:14Z</time>
      </trkpt>
      <trkpt lat="50.33525" lon="3.31301">
        <ele>21.662</ele>
        <time>2011-11-06T09:29:16Z</time>
      </trkpt>
      <trkpt lat="50.33537" lon="3.31257">
        <ele>22.378</ele>
        <time>2011-11-06T09:29:24Z</time>
      </trkpt>
      <trkpt lat="50.33552" lon="3.31221">
        <ele>24.619</ele>
        <time>2011-11-06T09:29:35Z</time>
      </trkpt>
      <trkpt lat="50.33557" lon="3.31213">
        <ele>26.537</ele>
        <time>2011-11-06T09:29:39Z</time>
      </trkpt>
      <trkpt lat="50.33558" lon="3.31212">
        <ele>27.16</ele>
        <time>2011-11-06T09:29:40Z</time>
      </trkpt>
      <trkpt lat="50.33568" lon="3.31205">
        <ele>29.407</ele>
        <time>2011-11-06T09:29:46Z</time>
      </trkpt>
      <trkpt lat="50.33583" lon="3.31187">
        <ele>32.582</ele>
        <time>2011-11-06T09:30:00Z</time>
      </trkpt>
      <trkpt lat="50.33588" lon="3.31182">
        <ele>33.454</ele>
        <time>2011-11-06T09:30:03Z</time>
      </trkpt>
      <trkpt lat="50.33607" lon="3.31176">
        <ele>36.207</ele>
        <time>2011-11-06T09:30:18Z</time>
      </trkpt>
      <trkpt lat="50.33616" lon="3.31167">
        <ele>38.063</ele>
        <time>2011-11-06T09:30:29Z</time>
      </trkpt>
      <trkpt lat="50.33597" lon="3.31128">
        <ele>38.3</ele>
        <time>2011-11-06T09:30:44Z</time>
      </trkpt>
      <trkpt lat="50.33592" lon="3.3112">
        <ele>37.908</ele>
        <time>2011-11-06T09:30:49Z</time>
      </trkpt>
      <trkpt lat="50.33571" lon="3.31115">
        <ele>38.184</ele>
        <time>2011-11-06T09:31:00Z</time>
      </trkpt>
      <trkpt lat="50.33536" lon="3.31122">
        <ele>37.979</ele>
        <time>2011-11-06T09:31:17Z</time>
      </trkpt>
      <trkpt lat="50.33483" lon="3.3113">
        <ele>37.617</ele>
        <time>2011-11-06T09:31:36Z</time>
      </trkpt>
      <trkpt lat="50.33423" lon="3.31139">
        <ele>38.403</ele>
        <time>2011-11-06T09:31:54Z</time>
      </trkpt>
      <trkpt lat="50.33359" lon="3.3115">
        <ele>38.917</ele>
        <time>2011-11-06T09:32:12Z</time>
      </trkpt>
      <trkpt lat="50.33294" lon="3.31175">
        <ele>40.36</ele>
        <time>2011-11-06T09:32:29Z</time>
      </trkpt>
      <trkpt lat="50.33258" lon="3.31191">
        <ele>41.047</ele>
        <time>2011-11-06T09:32:45Z</time>
      </trkpt>
      <trkpt lat="50.33258" lon="3.31191">
        <ele>41.394</ele>
        <time>2011-11-06T09:33:00Z</time>
      </trkpt>
      <trkpt lat="50.33258" lon="3.31191">
        <ele>41.448</ele>
        <time>2011-11-06T09:33:21Z</time>
      </trkpt>
      <trkpt lat="50.33258" lon="3.31191">
        <ele>41.197</ele>
        <time>2011-11-06T09:35:39Z</time>
      </trkpt>
      <trkpt lat="50.33258" lon="3.31191">
        <ele>40.426</ele>
        <time>2011-11-06T09:39:21Z</time>
      </trkpt>
      <trkpt lat="50.33203" lon="3.31212">
        <ele>40.522</ele>
        <time>2011-11-06T09:39:33Z</time>
      </trkpt>
      <trkpt lat="50.33193" lon="3.31216">
        <ele>39.469</ele>
        <time>2011-11-06T09:39:36Z</time>
      </trkpt>
      <trkpt lat="50.33177" lon="3.31193">
        <ele>39.845</ele>
        <time>2011-11-06T09:39:43Z</time>
      </trkpt>
      <trkpt lat="50.33166" lon="3.31181">
        <ele>39.639</ele>
        <time>2011-11-06T09:39:47Z</time>
      </trkpt>
      <trkpt lat="50.33077" lon="3.31174">
        <ele>40.561</ele>
        <time>2011-11-06T09:40:07Z</time>
      </trkpt>
      <trkpt lat="50.32988" lon="3.31171">
        <ele>40.829</ele>
        <time>2011-11-06T09:40:29Z</time>
      </trkpt>
      <trkpt lat="50.32931" lon="3.31165">
        <ele>41.601</ele>
        <time>2011-11-06T09:40:41Z</time>
      </trkpt>
      <trkpt lat="50.32855" lon="3.31115">
        <ele>42.31</ele>
        <time>2011-11-06T09:40:58Z</time>
      </trkpt>
      <trkpt lat="50.32822" lon="3.31087">
        <ele>41.976</ele>
        <time>2011-11-06T09:41:06Z</time>
      </trkpt>
      <trkpt lat="50.32759" lon="3.31032">
        <ele>42.645</ele>
        <time>2011-11-06T09:41:23Z</time>
      </trkpt>
      <trkpt lat="50.32741" lon="3.31019">
        <ele>42.18</ele>
        <time>2011-11-06T09:41:28Z</time>
      </trkpt>
      <trkpt lat="50.32708" lon="3.31004">
        <ele>41.951</ele>
        <time>2011-11-06T09:41:36Z</time>
      </trkpt>
      <trkpt lat="50.3268" lon="3.31004">
        <ele>41.652</ele>
        <time>2011-11-06T09:41:42Z</time>
      </trkpt>
      <trkpt lat="50.32622" lon="3.31045">
        <ele>42.856</ele>
        <time>2011-11-06T09:41:55Z</time>
      </trkpt>
      <trkpt lat="50.32615" lon="3.31054">
        <ele>42.938</ele>
        <time>2011-11-06T09:41:57Z</time>
      </trkpt>
      <trkpt lat="50.32592" lon="3.31106">
        <ele>44.439</ele>
        <time>2011-11-06T09:42:05Z</time>
      </trkpt>
      <trkpt lat="50.3258" lon="3.31104">
        <ele>43.825</ele>
        <time>2011-11-06T09:42:10Z</time>
      </trkpt>
      <trkpt lat="50.32579" lon="3.3109">
        <ele>42.783</ele>
        <time>2011-11-06T09:42:12Z</time>
      </trkpt>
      <trkpt lat="50.32578" lon="3.31073">
        <ele>41.12</ele>
        <time>2011-11-06T09:42:14Z</time>
      </trkpt>
      <trkpt lat="50.32577" lon="3.31066">
        <ele>40.174</ele>
        <time>2011-11-06T09:42:15Z</time>
      </trkpt>
      <trkpt lat="50.32575" lon="3.3104">
        <ele>38.308</ele>
        <time>2011-11-06T09:42:22Z</time>
      </trkpt>
      <trkpt lat="50.3254" lon="3.31045">
        <ele>39.301</ele>
        <time>2011-11-06T09:42:31Z</time>
      </trkpt>
      <trkpt lat="50.32532" lon="3.3105">
        <ele>38.323</ele>
        <time>2011-11-06T09:42:34Z</time>
      </trkpt>
      <trkpt lat="50.32524" lon="3.31056">
        <ele>37.881</ele>
        <time>2011-11-06T09:42:36Z</time>
      </trkpt>
      <trkpt lat="50.3251" lon="3.31062">
        <ele>38.157</ele>
        <time>2011-11-06T09:42:40Z</time>
      </trkpt>
      <trkpt lat="50.32502" lon="3.31089">
        <ele>38.08</ele>
        <time>2011-11-06T09:42:44Z</time>
      </trkpt>
      <trkpt lat="50.32485" lon="3.31123">
        <ele>37.471</ele>
        <time>2011-11-06T09:42:50Z</time>
      </trkpt>
      <trkpt lat="50.32447" lon="3.31134">
        <ele>37.873</ele>
        <time>2011-11-06T09:42:59Z</time>
      </trkpt>
      <trkpt lat="50.32413" lon="3.31109">
        <ele>34.99</ele>
        <time>2011-11-06T09:43:05Z</time>
      </trkpt>
      <trkpt lat="50.32406" lon="3.31103">
        <ele>33.091</ele>
        <time>2011-11-06T09:43:06Z</time>
      </trkpt>
      <trkpt lat="50.32378" lon="3.31094">
        <ele>35.439</ele>
        <time>2011-11-06T09:43:10Z</time>
      </trkpt>
      <trkpt lat="50.32372" lon="3.31092">
        <ele>35.733</ele>
        <time>2011-11-06T09:43:11Z</time>
      </trkpt>
      <trkpt lat="50.32344" lon="3.31067">
        <ele>35.852</ele>
        <time>2011-11-06T09:43:16Z</time>
      </trkpt>
      <trkpt lat="50.32341" lon="3.31053">
        <ele>35.772</ele>
        <time>2011-11-06T09:43:18Z</time>
      </trkpt>
      <trkpt lat="50.32344" lon="3.31008">
        <ele>36.265</ele>
        <time>2011-11-06T09:43:23Z</time>
      </trkpt>
      <trkpt lat="50.32345" lon="3.30985">
        <ele>38.281</ele>
        <time>2011-11-06T09:43:26Z</time>
      </trkpt>
      <trkpt lat="50.32346" lon="3.30974">
        <ele>38.434</ele>
        <time>2011-11-06T09:43:28Z</time>
      </trkpt>
      <trkpt lat="50.3237" lon="3.30942">
        <ele>39.758</ele>
        <time>2011-11-06T09:43:33Z</time>
      </trkpt>
      <trkpt lat="50.32383" lon="3.3089">
        <ele>39.714</ele>
        <time>2011-11-06T09:43:41Z</time>
      </trkpt>
      <trkpt lat="50.32379" lon="3.30861">
        <ele>39.889</ele>
        <time>2011-11-06T09:43:45Z</time>
      </trkpt>
      <trkpt lat="50.32364" lon="3.30827">
        <ele>41.557</ele>
        <time>2011-11-06T09:43:51Z</time>
      </trkpt>
      <trkpt lat="50.32359" lon="3.30809">
        <ele>41.869</ele>
        <time>2011-11-06T09:43:54Z</time>
      </trkpt>
      <trkpt lat="50.32356" lon="3.30775">
        <ele>41.721</ele>
        <time>2011-11-06T09:43:59Z</time>
      </trkpt>
      <trkpt lat="50.32369" lon="3.30706">
        <ele>42.559</ele>
        <time>2011-11-06T09:44:09Z</time>
      </trkpt>
      <trkpt lat="50.32387" lon="3.30656">
        <ele>40.169</ele>
        <time>2011-11-06T09:44:17Z</time>
      </trkpt>
      <trkpt lat="50.32395" lon="3.30603">
        <ele>41.004</ele>
        <time>2011-11-06T09:44:24Z</time>
      </trkpt>
      <trkpt lat="50.32392" lon="3.30574">
        <ele>44.063</ele>
        <time>2011-11-06T09:44:30Z</time>
      </trkpt>
      <trkpt lat="50.32398" lon="3.30502">
        <ele>45.888</ele>
        <time>2011-11-06T09:44:44Z</time>
      </trkpt>
      <trkpt lat="50.32406" lon="3.30464">
        <ele>45.638</ele>
        <time>2011-11-06T09:44:50Z</time>
      </trkpt>
      <trkpt lat="50.32407" lon="3.30365">
        <ele>46.644</ele>
        <time>2011-11-06T09:45:04Z</time>
      </trkpt>
      <trkpt lat="50.32407" lon="3.30245">
        <ele>47.65</ele>
        <time>2011-11-06T09:45:20Z</time>
      </trkpt>
      <trkpt lat="50.32408" lon="3.30229">
        <ele>47.619</ele>
        <time>2011-11-06T09:45:22Z</time>
      </trkpt>
      <trkpt lat="50.32418" lon="3.30193">
        <ele>47.553</ele>
        <time>2011-11-06T09:45:27Z</time>
      </trkpt>
      <trkpt lat="50.32471" lon="3.30074">
        <ele>48.794</ele>
        <time>2011-11-06T09:45:47Z</time>
      </trkpt>
      <trkpt lat="50.32476" lon="3.30062">
        <ele>48.262</ele>
        <time>2011-11-06T09:45:49Z</time>
      </trkpt>
      <trkpt lat="50.3249" lon="3.30033">
        <ele>48.637</ele>
        <time>2011-11-06T09:45:54Z</time>
      </trkpt>
      <trkpt lat="50.32536" lon="3.29925">
        <ele>49.108</ele>
        <time>2011-11-06T09:46:12Z</time>
      </trkpt>
      <trkpt lat="50.32543" lon="3.2991">
        <ele>48.501</ele>
        <time>2011-11-06T09:46:18Z</time>
      </trkpt>
      <trkpt lat="50.32556" lon="3.29877">
        <ele>49.081</ele>
        <time>2011-11-06T09:46:20Z</time>
      </trkpt>
      <trkpt lat="50.3259" lon="3.29807">
        <ele>47.519</ele>
        <time>2011-11-06T09:46:32Z</time>
      </trkpt>
      <trkpt lat="50.3262" lon="3.29743">
        <ele>48.406</ele>
        <time>2011-11-06T09:46:42Z</time>
      </trkpt>
      <trkpt lat="50.32622" lon="3.29717">
        <ele>48.929</ele>
        <time>2011-11-06T09:46:47Z</time>
      </trkpt>
      <trkpt lat="50.32611" lon="3.29702">
        <ele>49.449</ele>
        <time>2011-11-06T09:46:50Z</time>
      </trkpt>
      <trkpt lat="50.32544" lon="3.29633">
        <ele>50.372</ele>
        <time>2011-11-06T09:47:04Z</time>
      </trkpt>
      <trkpt lat="50.32534" lon="3.2962">
        <ele>49.931</ele>
        <time>2011-11-06T09:47:09Z</time>
      </trkpt>
      <trkpt lat="50.32452" lon="3.29437">
        <ele>50.705</ele>
        <time>2011-11-06T09:47:32Z</time>
      </trkpt>
      <trkpt lat="50.32384" lon="3.29315">
        <ele>51.872</ele>
        <time>2011-11-06T09:47:51Z</time>
      </trkpt>
      <trkpt lat="50.32302" lon="3.2919">
        <ele>53.229</ele>
        <time>2011-11-06T09:48:12Z</time>
      </trkpt>
      <trkpt lat="50.32208" lon="3.2909">
        <ele>52.799</ele>
        <time>2011-11-06T09:48:33Z</time>
      </trkpt>
      <trkpt lat="50.32118" lon="3.2899">
        <ele>52.004</ele>
        <time>2011-11-06T09:48:53Z</time>
      </trkpt>
      <trkpt lat="50.32021" lon="3.28843">
        <ele>49.477</ele>
        <time>2011-11-06T09:49:15Z</time>
      </trkpt>
      <trkpt lat="50.31904" lon="3.28659">
        <ele>49.148</ele>
        <time>2011-11-06T09:49:43Z</time>
      </trkpt>
      <trkpt lat="50.31796" lon="3.28496">
        <ele>48.513</ele>
        <time>2011-11-06T09:50:10Z</time>
      </trkpt>
      <trkpt lat="50.317" lon="3.28358">
        <ele>48.786</ele>
        <time>2011-11-06T09:50:36Z</time>
      </trkpt>
      <trkpt lat="50.31598" lon="3.2824">
        <ele>50.258</ele>
        <time>2011-11-06T09:51:03Z</time>
      </trkpt>
      <trkpt lat="50.31486" lon="3.28118">
        <ele>49.279</ele>
        <time>2011-11-06T09:51:31Z</time>
      </trkpt>
      <trkpt lat="50.31467" lon="3.28097">
        <ele>49.685</ele>
        <time>2011-11-06T09:51:36Z</time>
      </trkpt>
      <trkpt lat="50.31459" lon="3.28087">
        <ele>49.493</ele>
        <time>2011-11-06T09:51:38Z</time>
      </trkpt>
      <trkpt lat="50.31398" lon="3.28079">
        <ele>48.249</ele>
        <time>2011-11-06T09:51:48Z</time>
      </trkpt>
      <trkpt lat="50.3138" lon="3.28079">
        <ele>49.131</ele>
        <time>2011-11-06T09:51:51Z</time>
      </trkpt>
      <trkpt lat="50.31359" lon="3.28102">
        <ele>47.673</ele>
        <time>2011-11-06T09:51:55Z</time>
      </trkpt>
      <trkpt lat="50.31279" lon="3.2822">
        <ele>45.851</ele>
        <time>2011-11-06T09:52:11Z</time>
      </trkpt>
      <trkpt lat="50.31185" lon="3.28355">
        <ele>42.112</ele>
        <time>2011-11-06T09:52:29Z</time>
      </trkpt>
      <trkpt lat="50.31179" lon="3.28363">
        <ele>42.112</ele>
        <time>2011-11-06T09:52:30Z</time>
      </trkpt>
      <trkpt lat="50.3114" lon="3.28421">
        <ele>40.176</ele>
        <time>2011-11-06T09:52:37Z</time>
      </trkpt>
      <trkpt lat="50.31118" lon="3.2846">
        <ele>39.247</ele>
        <time>2011-11-06T09:52:41Z</time>
      </trkpt>
      <trkpt lat="50.31083" lon="3.28582">
        <ele>39.874</ele>
        <time>2011-11-06T09:52:51Z</time>
      </trkpt>
      <trkpt lat="50.31074" lon="3.28619">
        <ele>41.375</ele>
        <time>2011-11-06T09:52:55Z</time>
      </trkpt>
      <trkpt lat="50.31067" lon="3.28641">
        <ele>42.896</ele>
        <time>2011-11-06T09:52:58Z</time>
      </trkpt>
      <trkpt lat="50.31026" lon="3.28772">
        <ele>44.572</ele>
        <time>2011-11-06T09:53:17Z</time>
      </trkpt>
      <trkpt lat="50.30988" lon="3.28924">
        <ele>42.339</ele>
        <time>2011-11-06T09:53:35Z</time>
      </trkpt>
      <trkpt lat="50.30975" lon="3.28975">
        <ele>39.329</ele>
        <time>2011-11-06T09:53:41Z</time>
      </trkpt>
      <trkpt lat="50.30972" lon="3.28985">
        <ele>39.329</ele>
        <time>2011-11-06T09:53:42Z</time>
      </trkpt>
      <trkpt lat="50.30947" lon="3.29083">
        <ele>37.731</ele>
        <time>2011-11-06T09:53:53Z</time>
      </trkpt>
      <trkpt lat="50.30892" lon="3.29292">
        <ele>34.592</ele>
        <time>2011-11-06T09:54:15Z</time>
      </trkpt>
      <trkpt lat="50.30845" lon="3.29474">
        <ele>33.42</ele>
        <time>2011-11-06T09:54:34Z</time>
      </trkpt>
      <trkpt lat="50.30813" lon="3.29597">
        <ele>30.367</ele>
        <time>2011-11-06T09:54:47Z</time>
      </trkpt>
      <trkpt lat="50.3078" lon="3.29704">
        <ele>29.348</ele>
        <time>2011-11-06T09:54:58Z</time>
      </trkpt>
      <trkpt lat="50.30767" lon="3.29743">
        <ele>28.733</ele>
        <time>2011-11-06T09:55:02Z</time>
      </trkpt>
      <trkpt lat="50.30739" lon="3.29819">
        <ele>27.491</ele>
        <time>2011-11-06T09:55:10Z</time>
      </trkpt>
      <trkpt lat="50.30718" lon="3.29882">
        <ele>28.528</ele>
        <time>2011-11-06T09:55:17Z</time>
      </trkpt>
      <trkpt lat="50.30707" lon="3.29906">
        <ele>27.489</ele>
        <time>2011-11-06T09:55:20Z</time>
      </trkpt>
      <trkpt lat="50.30686" lon="3.29954">
        <ele>25.811</ele>
        <time>2011-11-06T09:55:26Z</time>
      </trkpt>
      <trkpt lat="50.30639" lon="3.30029">
        <ele>27.27</ele>
        <time>2011-11-06T09:55:37Z</time>
      </trkpt>
      <trkpt lat="50.30627" lon="3.30053">
        <ele>27.007</ele>
        <time>2011-11-06T09:55:40Z</time>
      </trkpt>
      <trkpt lat="50.3062" lon="3.3007">
        <ele>24.268</ele>
        <time>2011-11-06T09:55:42Z</time>
      </trkpt>
      <trkpt lat="50.30615" lon="3.30087">
        <ele>23.037</ele>
        <time>2011-11-06T09:55:44Z</time>
      </trkpt>
      <trkpt lat="50.30582" lon="3.30136">
        <ele>24.985</ele>
        <time>2011-11-06T09:55:51Z</time>
      </trkpt>
      <trkpt lat="50.30543" lon="3.30181">
        <ele>24.797</ele>
        <time>2011-11-06T09:55:58Z</time>
      </trkpt>
      <trkpt lat="50.30462" lon="3.30245">
        <ele>25.356</ele>
        <time>2011-11-06T09:56:12Z</time>
      </trkpt>
      <trkpt lat="50.30445" lon="3.30271">
        <ele>24.636</ele>
        <time>2011-11-06T09:56:16Z</time>
      </trkpt>
      <trkpt lat="50.30355" lon="3.30421">
        <ele>23.511</ele>
        <time>2011-11-06T09:56:37Z</time>
      </trkpt>
      <trkpt lat="50.3034" lon="3.30444">
        <ele>24.851</ele>
        <time>2011-11-06T09:56:41Z</time>
      </trkpt>
      <trkpt lat="50.30337" lon="3.30478">
        <ele>23.266</ele>
        <time>2011-11-06T09:56:46Z</time>
      </trkpt>
      <trkpt lat="50.30341" lon="3.30501">
        <ele>23.474</ele>
        <time>2011-11-06T09:56:49Z</time>
      </trkpt>
      <trkpt lat="50.30349" lon="3.30538">
        <ele>23.887</ele>
        <time>2011-11-06T09:56:54Z</time>
      </trkpt>
      <trkpt lat="50.30352" lon="3.30553">
        <ele>22.54</ele>
        <time>2011-11-06T09:56:56Z</time>
      </trkpt>
      <trkpt lat="50.30395" lon="3.30715">
        <ele>23.082</ele>
        <time>2011-11-06T09:57:18Z</time>
      </trkpt>
      <trkpt lat="50.304" lon="3.30737">
        <ele>23.273</ele>
        <time>2011-11-06T09:57:21Z</time>
      </trkpt>
      <trkpt lat="50.30406" lon="3.30757">
        <ele>21.609</ele>
        <time>2011-11-06T09:57:25Z</time>
      </trkpt>
      <trkpt lat="50.3043" lon="3.30775">
        <ele>21.198</ele>
        <time>2011-11-06T09:57:29Z</time>
      </trkpt>
      <trkpt lat="50.30436" lon="3.30781">
        <ele>22.797</ele>
        <time>2011-11-06T09:57:31Z</time>
      </trkpt>
      <trkpt lat="50.30436" lon="3.30781">
        <ele>22.925</ele>
        <time>2011-11-06T09:57:32Z</time>
      </trkpt>
      <trkpt lat="50.30455" lon="3.30832">
        <ele>22.734</ele>
        <time>2011-11-06T09:57:37Z</time>
      </trkpt>
      <trkpt lat="50.30465" lon="3.30972">
        <ele>25.024</ele>
        <time>2011-11-06T09:57:54Z</time>
      </trkpt>
      <trkpt lat="50.30478" lon="3.31125">
        <ele>24.016</ele>
        <time>2011-11-06T09:58:12Z</time>
      </trkpt>
      <trkpt lat="50.30504" lon="3.31282">
        <ele>22.373</ele>
        <time>2011-11-06T09:58:33Z</time>
      </trkpt>
      <trkpt lat="50.3051" lon="3.3131">
        <ele>23.917</ele>
        <time>2011-11-06T09:58:37Z</time>
      </trkpt>
      <trkpt lat="50.30544" lon="3.31466">
        <ele>27.003</ele>
        <time>2011-11-06T09:58:59Z</time>
      </trkpt>
      <trkpt lat="50.30577" lon="3.31657">
        <ele>25.026</ele>
        <time>2011-11-06T09:59:26Z</time>
      </trkpt>
      <trkpt lat="50.30592" lon="3.31856">
        <ele>24.423</ele>
        <time>2011-11-06T09:59:50Z</time>
      </trkpt>
      <trkpt lat="50.30613" lon="3.32037">
        <ele>23.36</ele>
        <time>2011-11-06T10:00:12Z</time>
      </trkpt>
      <trkpt lat="50.30614" lon="3.32046">
        <ele>23.36</ele>
        <time>2011-11-06T10:00:13Z</time>
      </trkpt>
      <trkpt lat="50.30641" lon="3.32215">
        <ele>23.274</ele>
        <time>2011-11-06T10:00:34Z</time>
      </trkpt>
      <trkpt lat="50.30658" lon="3.32304">
        <ele>24.757</ele>
        <time>2011-11-06T10:00:45Z</time>
      </trkpt>
      <trkpt lat="50.30664" lon="3.32327">
        <ele>24.351</ele>
        <time>2011-11-06T10:00:48Z</time>
      </trkpt>
      <trkpt lat="50.30702" lon="3.3248">
        <ele>25.414</ele>
        <time>2011-11-06T10:01:09Z</time>
      </trkpt>
      <trkpt lat="50.30717" lon="3.32545">
        <ele>25.048</ele>
        <time>2011-11-06T10:01:18Z</time>
      </trkpt>
      <trkpt lat="50.30702" lon="3.32586">
        <ele>26.609</ele>
        <time>2011-11-06T10:01:24Z</time>
      </trkpt>
      <trkpt lat="50.30698" lon="3.3259">
        <ele>27.092</ele>
        <time>2011-11-06T10:01:25Z</time>
      </trkpt>
      <trkpt lat="50.30655" lon="3.32629">
        <ele>26.978</ele>
        <time>2011-11-06T10:01:38Z</time>
      </trkpt>
      <trkpt lat="50.3064" lon="3.32651">
        <ele>26.3</ele>
        <time>2011-11-06T10:01:51Z</time>
      </trkpt>
      <trkpt lat="50.30588" lon="3.32756">
        <ele>25.096</ele>
        <time>2011-11-06T10:02:10Z</time>
      </trkpt>
      <trkpt lat="50.30558" lon="3.32817">
        <ele>24.731</ele>
        <time>2011-11-06T10:02:21Z</time>
      </trkpt>
      <trkpt lat="50.30537" lon="3.32824">
        <ele>24.921</ele>
        <time>2011-11-06T10:02:26Z</time>
      </trkpt>
      <trkpt lat="50.30425" lon="3.32742">
        <ele>23.364</ele>
        <time>2011-11-06T10:02:49Z</time>
      </trkpt>
      <trkpt lat="50.30283" lon="3.32639">
        <ele>22.24</ele>
        <time>2011-11-06T10:03:17Z</time>
      </trkpt>
      <trkpt lat="50.30279" lon="3.32636">
        <ele>21.803</ele>
        <time>2011-11-06T10:03:18Z</time>
      </trkpt>
      <trkpt lat="50.30256" lon="3.32658">
        <ele>20.575</ele>
        <time>2011-11-06T10:03:24Z</time>
      </trkpt>
      <trkpt lat="50.30256" lon="3.32675">
        <ele>19.24</ele>
        <time>2011-11-06T10:03:26Z</time>
      </trkpt>
      <trkpt lat="50.30256" lon="3.32776">
        <ele>19.235</ele>
        <time>2011-11-06T10:03:38Z</time>
      </trkpt>
      <trkpt lat="50.30256" lon="3.32816">
        <ele>18.356</ele>
        <time>2011-11-06T10:03:43Z</time>
      </trkpt>
      <trkpt lat="50.30254" lon="3.32906">
        <ele>20.547</ele>
        <time>2011-11-06T10:03:56Z</time>
      </trkpt>
      <trkpt lat="50.30255" lon="3.3296">
        <ele>19.847</ele>
        <time>2011-11-06T10:04:04Z</time>
      </trkpt>
      <trkpt lat="50.30246" lon="3.3297">
        <ele>20.907</ele>
        <time>2011-11-06T10:04:08Z</time>
      </trkpt>
      <trkpt lat="50.30242" lon="3.3297">
        <ele>21.563</ele>
        <time>2011-11-06T10:04:09Z</time>
      </trkpt>
      <trkpt lat="50.30232" lon="3.3297">
        <ele>21.668</ele>
        <time>2011-11-06T10:04:11Z</time>
      </trkpt>
      <trkpt lat="50.30211" lon="3.32971">
        <ele>21.481</ele>
        <time>2011-11-06T10:04:15Z</time>
      </trkpt>
      <trkpt lat="50.30193" lon="3.33003">
        <ele>19.425</ele>
        <time>2011-11-06T10:04:20Z</time>
      </trkpt>
      <trkpt lat="50.30192" lon="3.33012">
        <ele>19.383</ele>
        <time>2011-11-06T10:04:21Z</time>
      </trkpt>
      <trkpt lat="50.30191" lon="3.33085">
        <ele>17.732</ele>
        <time>2011-11-06T10:04:30Z</time>
      </trkpt>
      <trkpt lat="50.30197" lon="3.33226">
        <ele>18.781</ele>
        <time>2011-11-06T10:04:47Z</time>
      </trkpt>
      <trkpt lat="50.30213" lon="3.3336">
        <ele>18.697</ele>
        <time>2011-11-06T10:05:04Z</time>
      </trkpt>
      <trkpt lat="50.30225" lon="3.33414">
        <ele>18.841</ele>
        <time>2011-11-06T10:05:12Z</time>
      </trkpt>
      <trkpt lat="50.30242" lon="3.33464">
        <ele>17.378</ele>
        <time>2011-11-06T10:05:20Z</time>
      </trkpt>
      <trkpt lat="50.30247" lon="3.33476">
        <ele>18.599</ele>
        <time>2011-11-06T10:05:22Z</time>
      </trkpt>
      <trkpt lat="50.3025" lon="3.33481">
        <ele>18.284</ele>
        <time>2011-11-06T10:05:23Z</time>
      </trkpt>
      <trkpt lat="50.30264" lon="3.33523">
        <ele>19.587</ele>
        <time>2011-11-06T10:05:30Z</time>
      </trkpt>
      <trkpt lat="50.30273" lon="3.3358">
        <ele>19.892</ele>
        <time>2011-11-06T10:05:38Z</time>
      </trkpt>
      <trkpt lat="50.30286" lon="3.3363">
        <ele>17.355</ele>
        <time>2011-11-06T10:05:47Z</time>
      </trkpt>
      <trkpt lat="50.30293" lon="3.33669">
        <ele>18.758</ele>
        <time>2011-11-06T10:05:50Z</time>
      </trkpt>
      <trkpt lat="50.30296" lon="3.33681">
        <ele>17.42</ele>
        <time>2011-11-06T10:05:52Z</time>
      </trkpt>
      <trkpt lat="50.303" lon="3.33693">
        <ele>19.751</ele>
        <time>2011-11-06T10:05:54Z</time>
      </trkpt>
      <trkpt lat="50.30305" lon="3.33711">
        <ele>19.141</ele>
        <time>2011-11-06T10:05:57Z</time>
      </trkpt>
      <trkpt lat="50.30305" lon="3.33712">
        <ele>20.744</ele>
        <time>2011-11-06T10:05:59Z</time>
      </trkpt>
      <trkpt lat="50.30301" lon="3.3373">
        <ele>21.212</ele>
        <time>2011-11-06T10:06:01Z</time>
      </trkpt>
      <trkpt lat="50.30293" lon="3.33739">
        <ele>20.117</ele>
        <time>2011-11-06T10:06:03Z</time>
      </trkpt>
      <trkpt lat="50.30251" lon="3.33826">
        <ele>20.905</ele>
        <time>2011-11-06T10:06:16Z</time>
      </trkpt>
      <trkpt lat="50.30242" lon="3.33831">
        <ele>20.576</ele>
        <time>2011-11-06T10:06:21Z</time>
      </trkpt>
      <trkpt lat="50.30241" lon="3.33825">
        <ele>21.582</ele>
        <time>2011-11-06T10:06:29Z</time>
      </trkpt>
      <trkpt lat="50.30295" lon="3.33832">
        <ele>21.573</ele>
        <time>2011-11-06T10:06:44Z</time>
      </trkpt>
      <trkpt lat="50.30318" lon="3.33851">
        <ele>19.983</ele>
        <time>2011-11-06T10:06:49Z</time>
      </trkpt>
      <trkpt lat="50.30361" lon="3.33899">
        <ele>21.268</ele>
        <time>2011-11-06T10:06:59Z</time>
      </trkpt>
      <trkpt lat="50.3039" lon="3.33935">
        <ele>19.476</ele>
        <time>2011-11-06T10:07:06Z</time>
      </trkpt>
      <trkpt lat="50.30449" lon="3.34023">
        <ele>19.209</ele>
        <time>2011-11-06T10:07:22Z</time>
      </trkpt>
      <trkpt lat="50.30476" lon="3.34054">
        <ele>19.234</ele>
        <time>2011-11-06T10:07:29Z</time>
      </trkpt>
      <trkpt lat="50.30522" lon="3.34127">
        <ele>21.382</ele>
        <time>2011-11-06T10:07:36Z</time>
      </trkpt>
      <trkpt lat="50.3048" lon="3.34076">
        <ele>21.091</ele>
        <time>2011-11-06T10:07:38Z</time>
      </trkpt>
      <trkpt lat="50.30475" lon="3.34069">
        <ele>21.751</ele>
        <time>2011-11-06T10:07:40Z</time>
      </trkpt>
      <trkpt lat="50.30434" lon="3.34047">
        <ele>24.214</ele>
        <time>2011-11-06T10:08:00Z</time>
      </trkpt>
      <trkpt lat="50.30419" lon="3.34045">
        <ele>27.413</ele>
        <time>2011-11-06T10:08:06Z</time>
      </trkpt>
      <trkpt lat="50.30418" lon="3.34045">
        <ele>27.413</ele>
        <time>2011-11-06T10:08:07Z</time>
      </trkpt>
      <trkpt lat="50.30415" lon="3.34044">
        <ele>28.635</ele>
        <time>2011-11-06T10:08:09Z</time>
      </trkpt>
      <trkpt lat="50.30406" lon="3.3404">
        <ele>31.633</ele>
        <time>2011-11-06T10:08:16Z</time>
      </trkpt>
      <trkpt lat="50.30394" lon="3.34038">
        <ele>32.57</ele>
        <time>2011-11-06T10:08:26Z</time>
      </trkpt>
      <trkpt lat="50.30387" lon="3.34039">
        <ele>34.135</ele>
        <time>2011-11-06T10:08:32Z</time>
      </trkpt>
      <trkpt lat="50.3038" lon="3.34037">
        <ele>36.286</ele>
        <time>2011-11-06T10:08:38Z</time>
      </trkpt>
      <trkpt lat="50.30379" lon="3.34037">
        <ele>36.885</ele>
        <time>2011-11-06T10:08:39Z</time>
      </trkpt>
      <trkpt lat="50.30374" lon="3.34029">
        <ele>36.01</ele>
        <time>2011-11-06T10:08:44Z</time>
      </trkpt>
      <trkpt lat="50.30353" lon="3.33994">
        <ele>37.711</ele>
        <time>2011-11-06T10:09:03Z</time>
      </trkpt>
      <trkpt lat="50.30314" lon="3.33951">
        <ele>39.079</ele>
        <time>2011-11-06T10:09:26Z</time>
      </trkpt>
      <trkpt lat="50.30278" lon="3.33829">
        <ele>36.936</ele>
        <time>2011-11-06T10:09:38Z</time>
      </trkpt>
      <trkpt lat="50.30215" lon="3.33889">
        <ele>35.584</ele>
        <time>2011-11-06T10:09:46Z</time>
      </trkpt>
      <trkpt lat="50.30211" lon="3.33905">
        <ele>34.264</ele>
        <time>2011-11-06T10:09:48Z</time>
      </trkpt>
      <trkpt lat="50.30205" lon="3.33927">
        <ele>33.143</ele>
        <time>2011-11-06T10:09:51Z</time>
      </trkpt>
      <trkpt lat="50.30202" lon="3.33942">
        <ele>28.848</ele>
        <time>2011-11-06T10:09:53Z</time>
      </trkpt>
      <trkpt lat="50.30202" lon="3.33958">
        <ele>22.558</ele>
        <time>2011-11-06T10:09:55Z</time>
      </trkpt>
      <trkpt lat="50.30204" lon="3.33967">
        <ele>22.558</ele>
        <time>2011-11-06T10:09:56Z</time>
      </trkpt>
      <trkpt lat="50.30225" lon="3.34009">
        <ele>24.893</ele>
        <time>2011-11-06T10:10:02Z</time>
      </trkpt>
      <trkpt lat="50.30242" lon="3.3405">
        <ele>24.336</ele>
        <time>2011-11-06T10:10:08Z</time>
      </trkpt>
      <trkpt lat="50.30243" lon="3.34082">
        <ele>26.193</ele>
        <time>2011-11-06T10:10:12Z</time>
      </trkpt>
      <trkpt lat="50.30243" lon="3.3409">
        <ele>26.685</ele>
        <time>2011-11-06T10:10:13Z</time>
      </trkpt>
      <trkpt lat="50.30242" lon="3.34108">
        <ele>25.723</ele>
        <time>2011-11-06T10:10:15Z</time>
      </trkpt>
      <trkpt lat="50.30241" lon="3.34153">
        <ele>25.713</ele>
        <time>2011-11-06T10:10:20Z</time>
      </trkpt>
      <trkpt lat="50.30238" lon="3.34182">
        <ele>25.338</ele>
        <time>2011-11-06T10:10:23Z</time>
      </trkpt>
      <trkpt lat="50.30272" lon="3.34259">
        <ele>22.238</ele>
        <time>2011-11-06T10:10:32Z</time>
      </trkpt>
      <trkpt lat="50.30301" lon="3.34296">
        <ele>22.432</ele>
        <time>2011-11-06T10:10:38Z</time>
      </trkpt>
      <trkpt lat="50.30314" lon="3.34304">
        <ele>19.515</ele>
        <time>2011-11-06T10:10:40Z</time>
      </trkpt>
      <trkpt lat="50.30337" lon="3.34307">
        <ele>20.551</ele>
        <time>2011-11-06T10:10:44Z</time>
      </trkpt>
      <trkpt lat="50.30351" lon="3.34316">
        <ele>21.847</ele>
        <time>2011-11-06T10:10:47Z</time>
      </trkpt>
      <trkpt lat="50.30373" lon="3.34345">
        <ele>19.406</ele>
        <time>2011-11-06T10:10:56Z</time>
      </trkpt>
      <trkpt lat="50.30374" lon="3.34345">
        <ele>20.94</ele>
        <time>2011-11-06T10:10:58Z</time>
      </trkpt>
      <trkpt lat="50.30376" lon="3.34351">
        <ele>21.236</ele>
        <time>2011-11-06T10:11:00Z</time>
      </trkpt>
      <trkpt lat="50.30425" lon="3.34293">
        <ele>20.483</ele>
        <time>2011-11-06T10:11:04Z</time>
      </trkpt>
      <trkpt lat="50.30432" lon="3.34281">
        <ele>23.763</ele>
        <time>2011-11-06T10:11:07Z</time>
      </trkpt>
      <trkpt lat="50.30464" lon="3.34282">
        <ele>22.56</ele>
        <time>2011-11-06T10:11:18Z</time>
      </trkpt>
      <trkpt lat="50.30472" lon="3.34287">
        <ele>23.474</ele>
        <time>2011-11-06T10:11:21Z</time>
      </trkpt>
      <trkpt lat="50.30477" lon="3.34284">
        <ele>25.414</ele>
        <time>2011-11-06T10:11:24Z</time>
      </trkpt>
      <trkpt lat="50.30466" lon="3.34278">
        <ele>24.399</ele>
        <time>2011-11-06T10:11:29Z</time>
      </trkpt>
      <trkpt lat="50.30505" lon="3.34249">
        <ele>22.469</ele>
        <time>2011-11-06T10:11:33Z</time>
      </trkpt>
      <trkpt lat="50.30552" lon="3.34229">
        <ele>21.263</ele>
        <time>2011-11-06T10:11:36Z</time>
      </trkpt>
      <trkpt lat="50.30554" lon="3.34237">
        <ele>21.847</ele>
        <time>2011-11-06T10:11:38Z</time>
      </trkpt>
      <trkpt lat="50.30564" lon="3.34261">
        <ele>21.073</ele>
        <time>2011-11-06T10:11:42Z</time>
      </trkpt>
      <trkpt lat="50.30544" lon="3.34306">
        <ele>23.997</ele>
        <time>2011-11-06T10:11:48Z</time>
      </trkpt>
      <trkpt lat="50.30501" lon="3.34326">
        <ele>22.883</ele>
        <time>2011-11-06T10:12:01Z</time>
      </trkpt>
      <trkpt lat="50.3047" lon="3.34307">
        <ele>24.304</ele>
        <time>2011-11-06T10:12:08Z</time>
      </trkpt>
      <trkpt lat="50.3047" lon="3.34307">
        <ele>25.95</ele>
        <time>2011-11-06T10:12:32Z</time>
      </trkpt>
      <trkpt lat="50.3047" lon="3.34307">
        <ele>23.908</ele>
        <time>2011-11-06T10:12:47Z</time>
      </trkpt>
      <trkpt lat="50.3047" lon="3.34307">
        <ele>26.185</ele>
        <time>2011-11-06T10:12:49Z</time>
      </trkpt>
      <trkpt lat="50.3047" lon="3.34307">
        <ele>28.427</ele>
        <time>2011-11-06T10:12:54Z</time>
      </trkpt>
      <trkpt lat="50.3047" lon="3.34307">
        <ele>26.944</ele>
        <time>2011-11-06T10:12:56Z</time>
      </trkpt>
      <trkpt lat="50.3047" lon="3.34307">
        <ele>26.168</ele>
        <time>2011-11-06T10:12:58Z</time>
      </trkpt>
      <trkpt lat="50.3047" lon="3.3432">
        <ele>25.88</ele>
        <time>2011-11-06T10:13:03Z</time>
      </trkpt>
      <trkpt lat="50.3047" lon="3.3439">
        <ele>24.722</ele>
        <time>2011-11-06T10:13:18Z</time>
      </trkpt>
      <trkpt lat="50.3047" lon="3.34394">
        <ele>24.721</ele>
        <time>2011-11-06T10:13:19Z</time>
      </trkpt>
      <trkpt lat="50.3049" lon="3.34402">
        <ele>23.19</ele>
        <time>2011-11-06T10:13:23Z</time>
      </trkpt>
      <trkpt lat="50.30578" lon="3.34397">
        <ele>21.03</ele>
        <time>2011-11-06T10:13:41Z</time>
      </trkpt>
      <trkpt lat="50.30583" lon="3.34396">
        <ele>21.029</ele>
        <time>2011-11-06T10:13:42Z</time>
      </trkpt>
      <trkpt lat="50.30595" lon="3.34424">
        <ele>20.818</ele>
        <time>2011-11-06T10:13:47Z</time>
      </trkpt>
      <trkpt lat="50.30603" lon="3.34466">
        <ele>19.922</ele>
        <time>2011-11-06T10:13:57Z</time>
      </trkpt>
      <trkpt lat="50.30604" lon="3.34469">
        <ele>19.837</ele>
        <time>2011-11-06T10:14:08Z</time>
      </trkpt>
      <trkpt lat="50.30604" lon="3.34469">
        <ele>19.307</ele>
        <time>2011-11-06T10:14:11Z</time>
      </trkpt>
      <trkpt lat="50.30608" lon="3.34477">
        <ele>19.59</ele>
        <time>2011-11-06T10:14:15Z</time>
      </trkpt>
      <trkpt lat="50.30638" lon="3.3447">
        <ele>18.864</ele>
        <time>2011-11-06T10:14:26Z</time>
      </trkpt>
      <trkpt lat="50.30648" lon="3.34467">
        <ele>19.186</ele>
        <time>2011-11-06T10:14:33Z</time>
      </trkpt>
      <trkpt lat="50.30715" lon="3.34426">
        <ele>19.096</ele>
        <time>2011-11-06T10:14:46Z</time>
      </trkpt>
      <trkpt lat="50.30764" lon="3.34372">
        <ele>19.163</ele>
        <time>2011-11-06T10:15:00Z</time>
      </trkpt>
      <trkpt lat="50.30845" lon="3.3433">
        <ele>21.026</ele>
        <time>2011-11-06T10:15:19Z</time>
      </trkpt>
      <trkpt lat="50.30939" lon="3.34283">
        <ele>22.073</ele>
        <time>2011-11-06T10:15:40Z</time>
      </trkpt>
      <trkpt lat="50.31046" lon="3.34251">
        <ele>20.993</ele>
        <time>2011-11-06T10:16:03Z</time>
      </trkpt>
      <trkpt lat="50.31116" lon="3.34262">
        <ele>21.546</ele>
        <time>2011-11-06T10:16:20Z</time>
      </trkpt>
      <trkpt lat="50.31124" lon="3.34265">
        <ele>20.324</ele>
        <time>2011-11-06T10:16:22Z</time>
      </trkpt>
      <trkpt lat="50.31125" lon="3.34266">
        <ele>21.033</ele>
        <time>2011-11-06T10:16:24Z</time>
      </trkpt>
      <trkpt lat="50.31166" lon="3.34248">
        <ele>22.72</ele>
        <time>2011-11-06T10:16:33Z</time>
      </trkpt>
      <trkpt lat="50.31184" lon="3.3424">
        <ele>25.132</ele>
        <time>2011-11-06T10:16:37Z</time>
      </trkpt>
      <trkpt lat="50.31206" lon="3.34261">
        <ele>23.548</ele>
        <time>2011-11-06T10:16:42Z</time>
      </trkpt>
      <trkpt lat="50.31206" lon="3.3427">
        <ele>23.846</ele>
        <time>2011-11-06T10:16:43Z</time>
      </trkpt>
      <trkpt lat="50.31215" lon="3.34313">
        <ele>26.211</ele>
        <time>2011-11-06T10:16:49Z</time>
      </trkpt>
      <trkpt lat="50.3123" lon="3.34395">
        <ele>24.125</ele>
        <time>2011-11-06T10:17:00Z</time>
      </trkpt>
      <trkpt lat="50.31242" lon="3.34453">
        <ele>23.671</ele>
        <time>2011-11-06T10:17:10Z</time>
      </trkpt>
      <trkpt lat="50.31244" lon="3.34465">
        <ele>25.011</ele>
        <time>2011-11-06T10:17:13Z</time>
      </trkpt>
      <trkpt lat="50.31253" lon="3.34463">
        <ele>24.138</ele>
        <time>2011-11-06T10:17:17Z</time>
      </trkpt>
      <trkpt lat="50.31265" lon="3.34455">
        <ele>23.238</ele>
        <time>2011-11-06T10:17:20Z</time>
      </trkpt>
      <trkpt lat="50.31358" lon="3.344">
        <ele>25.321</ele>
        <time>2011-11-06T10:17:40Z</time>
      </trkpt>
      <trkpt lat="50.31363" lon="3.34397">
        <ele>24.473</ele>
        <time>2011-11-06T10:17:41Z</time>
      </trkpt>
      <trkpt lat="50.31371" lon="3.34392">
        <ele>23.502</ele>
        <time>2011-11-06T10:17:43Z</time>
      </trkpt>
      <trkpt lat="50.31381" lon="3.3441">
        <ele>22.911</ele>
        <time>2011-11-06T10:17:45Z</time>
      </trkpt>
      <trkpt lat="50.31384" lon="3.34424">
        <ele>23.964</ele>
        <time>2011-11-06T10:17:47Z</time>
      </trkpt>
      <trkpt lat="50.31415" lon="3.3456">
        <ele>24.85</ele>
        <time>2011-11-06T10:18:05Z</time>
      </trkpt>
      <trkpt lat="50.31421" lon="3.34585">
        <ele>24.947</ele>
        <time>2011-11-06T10:18:09Z</time>
      </trkpt>
      <trkpt lat="50.31443" lon="3.3459">
        <ele>26.036</ele>
        <time>2011-11-06T10:18:18Z</time>
      </trkpt>
      <trkpt lat="50.31499" lon="3.34613">
        <ele>24.739</ele>
        <time>2011-11-06T10:18:33Z</time>
      </trkpt>
      <trkpt lat="50.31512" lon="3.3462">
        <ele>23.29</ele>
        <time>2011-11-06T10:18:36Z</time>
      </trkpt>
      <trkpt lat="50.31586" lon="3.34652">
        <ele>25.711</ele>
        <time>2011-11-06T10:18:56Z</time>
      </trkpt>
      <trkpt lat="50.31586" lon="3.34652">
        <ele>26.221</ele>
        <time>2011-11-06T10:18:57Z</time>
      </trkpt>
      <trkpt lat="50.31618" lon="3.34634">
        <ele>26.537</ele>
        <time>2011-11-06T10:19:11Z</time>
      </trkpt>
      <trkpt lat="50.3165" lon="3.34614">
        <ele>26.012</ele>
        <time>2011-11-06T10:19:19Z</time>
      </trkpt>
      <trkpt lat="50.31667" lon="3.34606">
        <ele>26.104</ele>
        <time>2011-11-06T10:19:23Z</time>
      </trkpt>
      <trkpt lat="50.31712" lon="3.34586">
        <ele>26.529</ele>
        <time>2011-11-06T10:19:37Z</time>
      </trkpt>
      <trkpt lat="50.31763" lon="3.34613">
        <ele>25.136</ele>
        <time>2011-11-06T10:19:46Z</time>
      </trkpt>
      <trkpt lat="50.31828" lon="3.34601">
        <ele>23.697</ele>
        <time>2011-11-06T10:20:00Z</time>
      </trkpt>
      <trkpt lat="50.31853" lon="3.34608">
        <ele>22.937</ele>
        <time>2011-11-06T10:20:04Z</time>
      </trkpt>
      <trkpt lat="50.31871" lon="3.3463">
        <ele>22.75</ele>
        <time>2011-11-06T10:20:08Z</time>
      </trkpt>
      <trkpt lat="50.31881" lon="3.34645">
        <ele>22.794</ele>
        <time>2011-11-06T10:20:11Z</time>
      </trkpt>
      <trkpt lat="50.31929" lon="3.34713">
        <ele>22.4</ele>
        <time>2011-11-06T10:20:24Z</time>
      </trkpt>
      <trkpt lat="50.31931" lon="3.34719">
        <ele>22.701</ele>
        <time>2011-11-06T10:20:25Z</time>
      </trkpt>
      <trkpt lat="50.31934" lon="3.34731">
        <ele>23.445</ele>
        <time>2011-11-06T10:20:29Z</time>
      </trkpt>
      <trkpt lat="50.31928" lon="3.34739">
        <ele>24.059</ele>
        <time>2011-11-06T10:20:33Z</time>
      </trkpt>
      <trkpt lat="50.31925" lon="3.34746">
        <ele>25.504</ele>
        <time>2011-11-06T10:20:36Z</time>
      </trkpt>
      <trkpt lat="50.31922" lon="3.34762">
        <ele>28.954</ele>
        <time>2011-11-06T10:20:44Z</time>
      </trkpt>
      <trkpt lat="50.31917" lon="3.34779">
        <ele>31.041</ele>
        <time>2011-11-06T10:20:51Z</time>
      </trkpt>
      <trkpt lat="50.31917" lon="3.34789">
        <ele>31.334</ele>
        <time>2011-11-06T10:20:56Z</time>
      </trkpt>
      <trkpt lat="50.31919" lon="3.34799">
        <ele>31.332</ele>
        <time>2011-11-06T10:21:08Z</time>
      </trkpt>
      <trkpt lat="50.31917" lon="3.34802">
        <ele>30.899</ele>
        <time>2011-11-06T10:21:10Z</time>
      </trkpt>
      <trkpt lat="50.31914" lon="3.34809">
        <ele>31.258</ele>
        <time>2011-11-06T10:21:13Z</time>
      </trkpt>
      <trkpt lat="50.31916" lon="3.34834">
        <ele>31.039</ele>
        <time>2011-11-06T10:21:20Z</time>
      </trkpt>
      <trkpt lat="50.31907" lon="3.34862">
        <ele>31.451</ele>
        <time>2011-11-06T10:21:27Z</time>
      </trkpt>
      <trkpt lat="50.31895" lon="3.34866">
        <ele>31.896</ele>
        <time>2011-11-06T10:21:31Z</time>
      </trkpt>
      <trkpt lat="50.31878" lon="3.34888">
        <ele>33.752</ele>
        <time>2011-11-06T10:21:42Z</time>
      </trkpt>
      <trkpt lat="50.31863" lon="3.34887">
        <ele>33.783</ele>
        <time>2011-11-06T10:21:48Z</time>
      </trkpt>
      <trkpt lat="50.31855" lon="3.34881">
        <ele>33.747</ele>
        <time>2011-11-06T10:21:51Z</time>
      </trkpt>
      <trkpt lat="50.31849" lon="3.3487">
        <ele>34.022</ele>
        <time>2011-11-06T10:21:54Z</time>
      </trkpt>
      <trkpt lat="50.31811" lon="3.34863">
        <ele>33.079</ele>
        <time>2011-11-06T10:22:04Z</time>
      </trkpt>
      <trkpt lat="50.31799" lon="3.34855">
        <ele>30.666</ele>
        <time>2011-11-06T10:22:06Z</time>
      </trkpt>
      <trkpt lat="50.31747" lon="3.34879">
        <ele>26.43</ele>
        <time>2011-11-06T10:22:08Z</time>
      </trkpt>
      <trkpt lat="50.31735" lon="3.34846">
        <ele>27.691</ele>
        <time>2011-11-06T10:22:14Z</time>
      </trkpt>
      <trkpt lat="50.31742" lon="3.34841">
        <ele>27.628</ele>
        <time>2011-11-06T10:22:18Z</time>
      </trkpt>
      <trkpt lat="50.31745" lon="3.34839">
        <ele>27.175</ele>
        <time>2011-11-06T10:22:20Z</time>
      </trkpt>
      <trkpt lat="50.31771" lon="3.34838">
        <ele>28.625</ele>
        <time>2011-11-06T10:22:34Z</time>
      </trkpt>
      <trkpt lat="50.31771" lon="3.34838">
        <ele>29.059</ele>
        <time>2011-11-06T10:22:35Z</time>
      </trkpt>
      <trkpt lat="50.31774" lon="3.34836">
        <ele>28.548</ele>
        <time>2011-11-06T10:22:38Z</time>
      </trkpt>
      <trkpt lat="50.31807" lon="3.34822">
        <ele>29.128</ele>
        <time>2011-11-06T10:22:53Z</time>
      </trkpt>
      <trkpt lat="50.3182" lon="3.34816">
        <ele>32.608</ele>
        <time>2011-11-06T10:23:01Z</time>
      </trkpt>
      <trkpt lat="50.31826" lon="3.34816">
        <ele>34.005</ele>
        <time>2011-11-06T10:23:23Z</time>
      </trkpt>
      <trkpt lat="50.31827" lon="3.34815">
        <ele>33.95</ele>
        <time>2011-11-06T10:23:25Z</time>
      </trkpt>
      <trkpt lat="50.31841" lon="3.3481">
        <ele>36.968</ele>
        <time>2011-11-06T10:23:38Z</time>
      </trkpt>
      <trkpt lat="50.3185" lon="3.34804">
        <ele>38.335</ele>
        <time>2011-11-06T10:23:50Z</time>
      </trkpt>
      <trkpt lat="50.31854" lon="3.348">
        <ele>39.9</ele>
        <time>2011-11-06T10:23:57Z</time>
      </trkpt>
      <trkpt lat="50.31862" lon="3.34781">
        <ele>41.442</ele>
        <time>2011-11-06T10:24:09Z</time>
      </trkpt>
      <trkpt lat="50.31865" lon="3.34767">
        <ele>41.94</ele>
        <time>2011-11-06T10:24:25Z</time>
      </trkpt>
      <trkpt lat="50.31865" lon="3.34764">
        <ele>41.938</ele>
        <time>2011-11-06T10:24:26Z</time>
      </trkpt>
      <trkpt lat="50.31864" lon="3.34704">
        <ele>40.596</ele>
        <time>2011-11-06T10:24:40Z</time>
      </trkpt>
      <trkpt lat="50.31845" lon="3.34696">
        <ele>42.332</ele>
        <time>2011-11-06T10:24:49Z</time>
      </trkpt>
      <trkpt lat="50.31809" lon="3.34703">
        <ele>42.477</ele>
        <time>2011-11-06T10:25:08Z</time>
      </trkpt>
      <trkpt lat="50.31771" lon="3.34654">
        <ele>37.71</ele>
        <time>2011-11-06T10:25:09Z</time>
      </trkpt>
      <trkpt lat="50.31771" lon="3.34654">
        <ele>32.709</ele>
        <time>2011-11-06T10:25:11Z</time>
      </trkpt>
      <trkpt lat="50.31771" lon="3.34654">
        <ele>32.705</ele>
        <time>2011-11-06T10:25:12Z</time>
      </trkpt>
      <trkpt lat="50.31771" lon="3.34654">
        <ele>28.671</ele>
        <time>2011-11-06T10:25:13Z</time>
      </trkpt>
      <trkpt lat="50.31771" lon="3.34654">
        <ele>24.527</ele>
        <time>2011-11-06T10:25:14Z</time>
      </trkpt>
      <trkpt lat="50.31756" lon="3.34658">
        <ele>26.076</ele>
        <time>2011-11-06T10:25:17Z</time>
      </trkpt>
      <trkpt lat="50.31753" lon="3.34661">
        <ele>27.284</ele>
        <time>2011-11-06T10:25:18Z</time>
      </trkpt>
      <trkpt lat="50.31746" lon="3.34672">
        <ele>27.931</ele>
        <time>2011-11-06T10:25:22Z</time>
      </trkpt>
      <trkpt lat="50.31717" lon="3.34695">
        <ele>28.035</ele>
        <time>2011-11-06T10:25:26Z</time>
      </trkpt>
      <trkpt lat="50.31717" lon="3.34695">
        <ele>25.193</ele>
        <time>2011-11-06T10:25:28Z</time>
      </trkpt>
      <trkpt lat="50.31733" lon="3.34651">
        <ele>28.35</ele>
        <time>2011-11-06T10:25:35Z</time>
      </trkpt>
      <trkpt lat="50.31733" lon="3.34651">
        <ele>28.348</ele>
        <time>2011-11-06T10:25:36Z</time>
      </trkpt>
      <trkpt lat="50.31782" lon="3.34707">
        <ele>30.85</ele>
        <time>2011-11-06T10:25:42Z</time>
      </trkpt>
      <trkpt lat="50.31788" lon="3.34709">
        <ele>31.533</ele>
        <time>2011-11-06T10:25:47Z</time>
      </trkpt>
      <trkpt lat="50.31791" lon="3.34711">
        <ele>33.131</ele>
        <time>2011-11-06T10:25:50Z</time>
      </trkpt>
      <trkpt lat="50.31796" lon="3.34713">
        <ele>35.453</ele>
        <time>2011-11-06T10:26:05Z</time>
      </trkpt>
      <trkpt lat="50.31803" lon="3.34715">
        <ele>38.131</ele>
        <time>2011-11-06T10:26:22Z</time>
      </trkpt>
      <trkpt lat="50.31807" lon="3.34717">
        <ele>39.755</ele>
        <time>2011-11-06T10:26:32Z</time>
      </trkpt>
      <trkpt lat="50.31813" lon="3.34718">
        <ele>41.261</ele>
        <time>2011-11-06T10:26:43Z</time>
      </trkpt>
      <trkpt lat="50.31819" lon="3.34716">
        <ele>43.046</ele>
        <time>2011-11-06T10:26:52Z</time>
      </trkpt>
      <trkpt lat="50.31821" lon="3.34717">
        <ele>43.507</ele>
        <time>2011-11-06T10:26:54Z</time>
      </trkpt>
      <trkpt lat="50.31821" lon="3.34721">
        <ele>43.242</ele>
        <time>2011-11-06T10:27:09Z</time>
      </trkpt>
      <trkpt lat="50.31821" lon="3.34725">
        <ele>43.312</ele>
        <time>2011-11-06T10:27:12Z</time>
      </trkpt>
      <trkpt lat="50.31804" lon="3.34739">
        <ele>40.898</ele>
        <time>2011-11-06T10:27:17Z</time>
      </trkpt>
      <trkpt lat="50.31785" lon="3.34743">
        <ele>27.371</ele>
        <time>2011-11-06T10:27:19Z</time>
      </trkpt>
      <trkpt lat="50.31772" lon="3.34744">
        <ele>27.367</ele>
        <time>2011-11-06T10:27:20Z</time>
      </trkpt>
      <trkpt lat="50.3176" lon="3.34746">
        <ele>21.704</ele>
        <time>2011-11-06T10:27:21Z</time>
      </trkpt>
      <trkpt lat="50.31712" lon="3.34717">
        <ele>21.702</ele>
        <time>2011-11-06T10:27:22Z</time>
      </trkpt>
      <trkpt lat="50.3171" lon="3.34723">
        <ele>25.304</ele>
        <time>2011-11-06T10:27:23Z</time>
      </trkpt>
      <trkpt lat="50.31709" lon="3.34726">
        <ele>25.304</ele>
        <time>2011-11-06T10:27:24Z</time>
      </trkpt>
      <trkpt lat="50.31708" lon="3.34786">
        <ele>27.763</ele>
        <time>2011-11-06T10:27:26Z</time>
      </trkpt>
      <trkpt lat="50.31735" lon="3.34741">
        <ele>27.747</ele>
        <time>2011-11-06T10:27:29Z</time>
      </trkpt>
      <trkpt lat="50.31735" lon="3.3474">
        <ele>28.209</ele>
        <time>2011-11-06T10:27:48Z</time>
      </trkpt>
      <trkpt lat="50.31737" lon="3.3474">
        <ele>27.909</ele>
        <time>2011-11-06T10:28:24Z</time>
      </trkpt>
      <trkpt lat="50.31735" lon="3.34734">
        <ele>28.408</ele>
        <time>2011-11-06T10:28:28Z</time>
      </trkpt>
      <trkpt lat="50.3173" lon="3.34742">
        <ele>27.821</ele>
        <time>2011-11-06T10:28:32Z</time>
      </trkpt>
      <trkpt lat="50.31725" lon="3.3475">
        <ele>28.17</ele>
        <time>2011-11-06T10:28:35Z</time>
      </trkpt>
      <trkpt lat="50.31705" lon="3.34752">
        <ele>28.552</ele>
        <time>2011-11-06T10:28:43Z</time>
      </trkpt>
      <trkpt lat="50.31706" lon="3.34782">
        <ele>27.479</ele>
        <time>2011-11-06T10:28:51Z</time>
      </trkpt>
      <trkpt lat="50.31731" lon="3.34834">
        <ele>25.228</ele>
        <time>2011-11-06T10:29:03Z</time>
      </trkpt>
      <trkpt lat="50.31755" lon="3.34905">
        <ele>26.565</ele>
        <time>2011-11-06T10:29:19Z</time>
      </trkpt>
      <trkpt lat="50.3176" lon="3.34919">
        <ele>25.974</ele>
        <time>2011-11-06T10:29:22Z</time>
      </trkpt>
      <trkpt lat="50.31776" lon="3.34975">
        <ele>26.628</ele>
        <time>2011-11-06T10:29:36Z</time>
      </trkpt>
      <trkpt lat="50.31779" lon="3.34986">
        <ele>26.669</ele>
        <time>2011-11-06T10:29:40Z</time>
      </trkpt>
      <trkpt lat="50.31828" lon="3.34962">
        <ele>28.437</ele>
        <time>2011-11-06T10:29:56Z</time>
      </trkpt>
      <trkpt lat="50.31873" lon="3.34935">
        <ele>28.281</ele>
        <time>2011-11-06T10:30:10Z</time>
      </trkpt>
      <trkpt lat="50.31902" lon="3.34917">
        <ele>27.138</ele>
        <time>2011-11-06T10:30:18Z</time>
      </trkpt>
      <trkpt lat="50.31919" lon="3.34938">
        <ele>27.639</ele>
        <time>2011-11-06T10:30:23Z</time>
      </trkpt>
      <trkpt lat="50.31925" lon="3.3495">
        <ele>24.67</ele>
        <time>2011-11-06T10:30:28Z</time>
      </trkpt>
      <trkpt lat="50.31941" lon="3.34924">
        <ele>25.439</ele>
        <time>2011-11-06T10:30:31Z</time>
      </trkpt>
      <trkpt lat="50.31964" lon="3.34881">
        <ele>27.361</ele>
        <time>2011-11-06T10:30:37Z</time>
      </trkpt>
      <trkpt lat="50.31962" lon="3.34877">
        <ele>26.662</ele>
        <time>2011-11-06T10:30:40Z</time>
      </trkpt>
      <trkpt lat="50.31955" lon="3.34886">
        <ele>25.105</ele>
        <time>2011-11-06T10:30:43Z</time>
      </trkpt>
      <trkpt lat="50.31951" lon="3.34856">
        <ele>24.972</ele>
        <time>2011-11-06T10:30:50Z</time>
      </trkpt>
      <trkpt lat="50.31943" lon="3.34825">
        <ele>24.91</ele>
        <time>2011-11-06T10:30:55Z</time>
      </trkpt>
      <trkpt lat="50.31944" lon="3.34797">
        <ele>22.96</ele>
        <time>2011-11-06T10:30:58Z</time>
      </trkpt>
      <trkpt lat="50.31942" lon="3.34774">
        <ele>21.953</ele>
        <time>2011-11-06T10:31:00Z</time>
      </trkpt>
      <trkpt lat="50.31936" lon="3.34748">
        <ele>22.796</ele>
        <time>2011-11-06T10:31:04Z</time>
      </trkpt>
      <trkpt lat="50.31932" lon="3.34744">
        <ele>23.362</ele>
        <time>2011-11-06T10:31:13Z</time>
      </trkpt>
      <trkpt lat="50.31928" lon="3.34756">
        <ele>26.373</ele>
        <time>2011-11-06T10:31:26Z</time>
      </trkpt>
      <trkpt lat="50.31924" lon="3.34765">
        <ele>28.266</ele>
        <time>2011-11-06T10:31:35Z</time>
      </trkpt>
      <trkpt lat="50.3192" lon="3.3478">
        <ele>29.933</ele>
        <time>2011-11-06T10:31:48Z</time>
      </trkpt>
      <trkpt lat="50.31917" lon="3.34789">
        <ele>29.801</ele>
        <time>2011-11-06T10:31:58Z</time>
      </trkpt>
      <trkpt lat="50.31917" lon="3.34794">
        <ele>29.845</ele>
        <time>2011-11-06T10:32:01Z</time>
      </trkpt>
      <trkpt lat="50.31921" lon="3.34798">
        <ele>29.851</ele>
        <time>2011-11-06T10:32:06Z</time>
      </trkpt>
      <trkpt lat="50.31915" lon="3.34815">
        <ele>29.926</ele>
        <time>2011-11-06T10:32:14Z</time>
      </trkpt>
      <trkpt lat="50.31913" lon="3.34838">
        <ele>28.967</ele>
        <time>2011-11-06T10:32:20Z</time>
      </trkpt>
      <trkpt lat="50.31907" lon="3.34856">
        <ele>30.171</ele>
        <time>2011-11-06T10:32:24Z</time>
      </trkpt>
      <trkpt lat="50.31884" lon="3.34877">
        <ele>32.223</ele>
        <time>2011-11-06T10:32:33Z</time>
      </trkpt>
      <trkpt lat="50.31875" lon="3.3489">
        <ele>32.549</ele>
        <time>2011-11-06T10:32:37Z</time>
      </trkpt>
      <trkpt lat="50.31855" lon="3.34882">
        <ele>33.107</ele>
        <time>2011-11-06T10:32:44Z</time>
      </trkpt>
      <trkpt lat="50.3185" lon="3.34871">
        <ele>33.082</ele>
        <time>2011-11-06T10:32:47Z</time>
      </trkpt>
      <trkpt lat="50.31827" lon="3.34862">
        <ele>34.067</ele>
        <time>2011-11-06T10:32:54Z</time>
      </trkpt>
      <trkpt lat="50.31813" lon="3.34863">
        <ele>31.84</ele>
        <time>2011-11-06T10:32:57Z</time>
      </trkpt>
      <trkpt lat="50.31801" lon="3.34856">
        <ele>28.67</ele>
        <time>2011-11-06T10:32:59Z</time>
      </trkpt>
      <trkpt lat="50.31795" lon="3.34852">
        <ele>28.671</ele>
        <time>2011-11-06T10:33:00Z</time>
      </trkpt>
      <trkpt lat="50.31748" lon="3.34881">
        <ele>27.498</ele>
        <time>2011-11-06T10:33:01Z</time>
      </trkpt>
      <trkpt lat="50.31738" lon="3.34854">
        <ele>25.119</ele>
        <time>2011-11-06T10:33:05Z</time>
      </trkpt>
      <trkpt lat="50.3174" lon="3.3486">
        <ele>25.912</ele>
        <time>2011-11-06T10:33:10Z</time>
      </trkpt>
      <trkpt lat="50.31759" lon="3.34916">
        <ele>26.124</ele>
        <time>2011-11-06T10:33:20Z</time>
      </trkpt>
      <trkpt lat="50.31776" lon="3.34975">
        <ele>25.848</ele>
        <time>2011-11-06T10:33:31Z</time>
      </trkpt>
      <trkpt lat="50.31807" lon="3.34974">
        <ele>27.649</ele>
        <time>2011-11-06T10:33:43Z</time>
      </trkpt>
      <trkpt lat="50.31855" lon="3.34947">
        <ele>28.607</ele>
        <time>2011-11-06T10:33:58Z</time>
      </trkpt>
      <trkpt lat="50.31905" lon="3.34916">
        <ele>27.635</ele>
        <time>2011-11-06T10:34:13Z</time>
      </trkpt>
      <trkpt lat="50.31918" lon="3.34936">
        <ele>27.749</ele>
        <time>2011-11-06T10:34:17Z</time>
      </trkpt>
      <trkpt lat="50.31925" lon="3.3495">
        <ele>26.425</ele>
        <time>2011-11-06T10:34:23Z</time>
      </trkpt>
      <trkpt lat="50.31939" lon="3.34926">
        <ele>25.931</ele>
        <time>2011-11-06T10:34:25Z</time>
      </trkpt>
      <trkpt lat="50.31984" lon="3.34896">
        <ele>25.467</ele>
        <time>2011-11-06T10:34:36Z</time>
      </trkpt>
      <trkpt lat="50.32013" lon="3.34878">
        <ele>24.842</ele>
        <time>2011-11-06T10:34:44Z</time>
      </trkpt>
      <trkpt lat="50.32061" lon="3.34848">
        <ele>25.869</ele>
        <time>2011-11-06T10:34:57Z</time>
      </trkpt>
      <trkpt lat="50.32073" lon="3.34842">
        <ele>25.922</ele>
        <time>2011-11-06T10:35:00Z</time>
      </trkpt>
      <trkpt lat="50.3212" lon="3.34817">
        <ele>25.22</ele>
        <time>2011-11-06T10:35:09Z</time>
      </trkpt>
      <trkpt lat="50.32169" lon="3.34841">
        <ele>25.85</ele>
        <time>2011-11-06T10:35:22Z</time>
      </trkpt>
      <trkpt lat="50.32179" lon="3.34855">
        <ele>26.772</ele>
        <time>2011-11-06T10:35:27Z</time>
      </trkpt>
      <trkpt lat="50.32192" lon="3.34844">
        <ele>27.385</ele>
        <time>2011-11-06T10:35:32Z</time>
      </trkpt>
      <trkpt lat="50.32204" lon="3.34774">
        <ele>27.561</ele>
        <time>2011-11-06T10:35:47Z</time>
      </trkpt>
      <trkpt lat="50.32209" lon="3.34741">
        <ele>27.86</ele>
        <time>2011-11-06T10:35:53Z</time>
      </trkpt>
      <trkpt lat="50.32224" lon="3.34713">
        <ele>27.977</ele>
        <time>2011-11-06T10:35:57Z</time>
      </trkpt>
      <trkpt lat="50.3222" lon="3.34675">
        <ele>28.563</ele>
        <time>2011-11-06T10:36:05Z</time>
      </trkpt>
      <trkpt lat="50.32216" lon="3.34652">
        <ele>26.772</ele>
        <time>2011-11-06T10:36:09Z</time>
      </trkpt>
      <trkpt lat="50.32211" lon="3.34631">
        <ele>22.097</ele>
        <time>2011-11-06T10:36:12Z</time>
      </trkpt>
      <trkpt lat="50.32214" lon="3.34644">
        <ele>22.661</ele>
        <time>2011-11-06T10:36:17Z</time>
      </trkpt>
      <trkpt lat="50.32216" lon="3.34653">
        <ele>22.653</ele>
        <time>2011-11-06T10:36:19Z</time>
      </trkpt>
      <trkpt lat="50.32224" lon="3.34707">
        <ele>24.142</ele>
        <time>2011-11-06T10:36:31Z</time>
      </trkpt>
      <trkpt lat="50.32225" lon="3.34734">
        <ele>24.166</ele>
        <time>2011-11-06T10:36:37Z</time>
      </trkpt>
      <trkpt lat="50.32225" lon="3.34761">
        <ele>25.073</ele>
        <time>2011-11-06T10:36:44Z</time>
      </trkpt>
      <trkpt lat="50.32283" lon="3.34824">
        <ele>25.9</ele>
        <time>2011-11-06T10:36:57Z</time>
      </trkpt>
      <trkpt lat="50.32272" lon="3.34882">
        <ele>26.75</ele>
        <time>2011-11-06T10:37:08Z</time>
      </trkpt>
      <trkpt lat="50.32272" lon="3.34905">
        <ele>28.318</ele>
        <time>2011-11-06T10:37:12Z</time>
      </trkpt>
      <trkpt lat="50.32272" lon="3.34907">
        <ele>29.982</ele>
        <time>2011-11-06T10:37:13Z</time>
      </trkpt>
      <trkpt lat="50.32255" lon="3.34913">
        <ele>31.197</ele>
        <time>2011-11-06T10:37:23Z</time>
      </trkpt>
      <trkpt lat="50.32218" lon="3.34926">
        <ele>29.938</ele>
        <time>2011-11-06T10:37:39Z</time>
      </trkpt>
      <trkpt lat="50.32207" lon="3.34914">
        <ele>28.432</ele>
        <time>2011-11-06T10:37:44Z</time>
      </trkpt>
      <trkpt lat="50.32189" lon="3.34926">
        <ele>26.728</ele>
        <time>2011-11-06T10:37:46Z</time>
      </trkpt>
      <trkpt lat="50.32192" lon="3.34916">
        <ele>23.595</ele>
        <time>2011-11-06T10:37:47Z</time>
      </trkpt>
      <trkpt lat="50.32182" lon="3.34921">
        <ele>26.094</ele>
        <time>2011-11-06T10:37:52Z</time>
      </trkpt>
      <trkpt lat="50.32172" lon="3.34918">
        <ele>27.691</ele>
        <time>2011-11-06T10:37:56Z</time>
      </trkpt>
      <trkpt lat="50.32159" lon="3.34918">
        <ele>27.51</ele>
        <time>2011-11-06T10:38:03Z</time>
      </trkpt>
      <trkpt lat="50.32154" lon="3.34919">
        <ele>27.487</ele>
        <time>2011-11-06T10:38:06Z</time>
      </trkpt>
      <trkpt lat="50.32169" lon="3.34983">
        <ele>27.574</ele>
        <time>2011-11-06T10:38:11Z</time>
      </trkpt>
      <trkpt lat="50.32165" lon="3.34999">
        <ele>27.587</ele>
        <time>2011-11-06T10:38:15Z</time>
      </trkpt>
      <trkpt lat="50.32125" lon="3.34924">
        <ele>27.452</ele>
        <time>2011-11-06T10:38:19Z</time>
      </trkpt>
      <trkpt lat="50.32153" lon="3.35045">
        <ele>27.009</ele>
        <time>2011-11-06T10:38:28Z</time>
      </trkpt>
      <trkpt lat="50.32147" lon="3.35071">
        <ele>26.414</ele>
        <time>2011-11-06T10:38:32Z</time>
      </trkpt>
      <trkpt lat="50.32144" lon="3.35084">
        <ele>26.047</ele>
        <time>2011-11-06T10:38:34Z</time>
      </trkpt>
      <trkpt lat="50.32071" lon="3.35154">
        <ele>26.993</ele>
        <time>2011-11-06T10:38:51Z</time>
      </trkpt>
      <trkpt lat="50.32062" lon="3.35177">
        <ele>27.404</ele>
        <time>2011-11-06T10:38:56Z</time>
      </trkpt>
      <trkpt lat="50.32037" lon="3.35167">
        <ele>28.291</ele>
        <time>2011-11-06T10:39:05Z</time>
      </trkpt>
      <trkpt lat="50.31993" lon="3.35135">
        <ele>30.091</ele>
        <time>2011-11-06T10:39:19Z</time>
      </trkpt>
      <trkpt lat="50.31968" lon="3.35134">
        <ele>31.884</ele>
        <time>2011-11-06T10:39:31Z</time>
      </trkpt>
      <trkpt lat="50.31967" lon="3.35146">
        <ele>32.584</ele>
        <time>2011-11-06T10:39:36Z</time>
      </trkpt>
      <trkpt lat="50.31969" lon="3.35163">
        <ele>34.29</ele>
        <time>2011-11-06T10:39:42Z</time>
      </trkpt>
      <trkpt lat="50.31939" lon="3.3519">
        <ele>33.797</ele>
        <time>2011-11-06T10:39:47Z</time>
      </trkpt>
      <trkpt lat="50.3194" lon="3.35212">
        <ele>30.575</ele>
        <time>2011-11-06T10:39:50Z</time>
      </trkpt>
      <trkpt lat="50.31939" lon="3.35225">
        <ele>29.052</ele>
        <time>2011-11-06T10:39:52Z</time>
      </trkpt>
      <trkpt lat="50.31925" lon="3.35282">
        <ele>28.083</ele>
        <time>2011-11-06T10:39:59Z</time>
      </trkpt>
      <trkpt lat="50.31916" lon="3.35304">
        <ele>28.058</ele>
        <time>2011-11-06T10:40:02Z</time>
      </trkpt>
      <trkpt lat="50.31891" lon="3.35396">
        <ele>26.565</ele>
        <time>2011-11-06T10:40:13Z</time>
      </trkpt>
      <trkpt lat="50.31887" lon="3.3544">
        <ele>24.636</ele>
        <time>2011-11-06T10:40:18Z</time>
      </trkpt>
      <trkpt lat="50.31885" lon="3.35505">
        <ele>23.239</ele>
        <time>2011-11-06T10:40:25Z</time>
      </trkpt>
      <trkpt lat="50.31884" lon="3.35538">
        <ele>24.913</ele>
        <time>2011-11-06T10:40:29Z</time>
      </trkpt>
      <trkpt lat="50.31885" lon="3.35547">
        <ele>25.3</ele>
        <time>2011-11-06T10:40:30Z</time>
      </trkpt>
      <trkpt lat="50.31893" lon="3.35653">
        <ele>23.906</ele>
        <time>2011-11-06T10:40:42Z</time>
      </trkpt>
      <trkpt lat="50.31895" lon="3.35764">
        <ele>23.391</ele>
        <time>2011-11-06T10:40:55Z</time>
      </trkpt>
      <trkpt lat="50.31889" lon="3.359">
        <ele>25.554</ele>
        <time>2011-11-06T10:41:15Z</time>
      </trkpt>
      <trkpt lat="50.31906" lon="3.35912">
        <ele>25.005</ele>
        <time>2011-11-06T10:41:20Z</time>
      </trkpt>
      <trkpt lat="50.3191" lon="3.35942">
        <ele>23.874</ele>
        <time>2011-11-06T10:41:24Z</time>
      </trkpt>
      <trkpt lat="50.3191" lon="3.36041">
        <ele>24.796</ele>
        <time>2011-11-06T10:41:42Z</time>
      </trkpt>
      <trkpt lat="50.31907" lon="3.36086">
        <ele>25.518</ele>
        <time>2011-11-06T10:41:53Z</time>
      </trkpt>
      <trkpt lat="50.31903" lon="3.36109">
        <ele>25.21</ele>
        <time>2011-11-06T10:41:58Z</time>
      </trkpt>
      <trkpt lat="50.3196" lon="3.3616">
        <ele>25.431</ele>
        <time>2011-11-06T10:42:15Z</time>
      </trkpt>
      <trkpt lat="50.3198" lon="3.36158">
        <ele>25.656</ele>
        <time>2011-11-06T10:42:22Z</time>
      </trkpt>
      <trkpt lat="50.31992" lon="3.36154">
        <ele>25.51</ele>
        <time>2011-11-06T10:42:26Z</time>
      </trkpt>
      <trkpt lat="50.32004" lon="3.36149">
        <ele>25.543</ele>
        <time>2011-11-06T10:42:29Z</time>
      </trkpt>
      <trkpt lat="50.32024" lon="3.3614">
        <ele>26.15</ele>
        <time>2011-11-06T10:42:34Z</time>
      </trkpt>
      <trkpt lat="50.32052" lon="3.36118">
        <ele>26.22</ele>
        <time>2011-11-06T10:42:41Z</time>
      </trkpt>
      <trkpt lat="50.32095" lon="3.36065">
        <ele>26.746</ele>
        <time>2011-11-06T10:42:53Z</time>
      </trkpt>
      <trkpt lat="50.32119" lon="3.36031">
        <ele>26.877</ele>
        <time>2011-11-06T10:43:02Z</time>
      </trkpt>
      <trkpt lat="50.3212" lon="3.36029">
        <ele>27.521</ele>
        <time>2011-11-06T10:43:14Z</time>
      </trkpt>
      <trkpt lat="50.32204" lon="3.36003">
        <ele>27.82</ele>
        <time>2011-11-06T10:43:26Z</time>
      </trkpt>
      <trkpt lat="50.32206" lon="3.36001">
        <ele>27.815</ele>
        <time>2011-11-06T10:43:27Z</time>
      </trkpt>
      <trkpt lat="50.32223" lon="3.35961">
        <ele>27.849</ele>
        <time>2011-11-06T10:43:31Z</time>
      </trkpt>
      <trkpt lat="50.32223" lon="3.35937">
        <ele>27.517</ele>
        <time>2011-11-06T10:43:35Z</time>
      </trkpt>
      <trkpt lat="50.32225" lon="3.35868">
        <ele>28.147</ele>
        <time>2011-11-06T10:43:46Z</time>
      </trkpt>
      <trkpt lat="50.32228" lon="3.35786">
        <ele>29.323</ele>
        <time>2011-11-06T10:44:03Z</time>
      </trkpt>
      <trkpt lat="50.32229" lon="3.3576">
        <ele>28.979</ele>
        <time>2011-11-06T10:44:09Z</time>
      </trkpt>
      <trkpt lat="50.32229" lon="3.3575">
        <ele>29.341</ele>
        <time>2011-11-06T10:44:13Z</time>
      </trkpt>
      <trkpt lat="50.3223" lon="3.35728">
        <ele>29.129</ele>
        <time>2011-11-06T10:44:19Z</time>
      </trkpt>
      <trkpt lat="50.32231" lon="3.35673">
        <ele>29.442</ele>
        <time>2011-11-06T10:44:32Z</time>
      </trkpt>
      <trkpt lat="50.32232" lon="3.35656">
        <ele>28.911</ele>
        <time>2011-11-06T10:44:35Z</time>
      </trkpt>
      <trkpt lat="50.32233" lon="3.35635">
        <ele>29.481</ele>
        <time>2011-11-06T10:44:40Z</time>
      </trkpt>
      <trkpt lat="50.32167" lon="3.35605">
        <ele>26.883</ele>
        <time>2011-11-06T10:44:49Z</time>
      </trkpt>
      <trkpt lat="50.32146" lon="3.35589">
        <ele>24.54</ele>
        <time>2011-11-06T10:44:53Z</time>
      </trkpt>
      <trkpt lat="50.32098" lon="3.35551">
        <ele>25.639</ele>
        <time>2011-11-06T10:45:06Z</time>
      </trkpt>
      <trkpt lat="50.32097" lon="3.35545">
        <ele>25.978</ele>
        <time>2011-11-06T10:45:07Z</time>
      </trkpt>
      <trkpt lat="50.32067" lon="3.3549">
        <ele>27.621</ele>
        <time>2011-11-06T10:45:22Z</time>
      </trkpt>
      <trkpt lat="50.32054" lon="3.35482">
        <ele>27.96</ele>
        <time>2011-11-06T10:45:26Z</time>
      </trkpt>
      <trkpt lat="50.32057" lon="3.3546">
        <ele>27.317</ele>
        <time>2011-11-06T10:45:32Z</time>
      </trkpt>
      <trkpt lat="50.32061" lon="3.35452">
        <ele>27.705</ele>
        <time>2011-11-06T10:45:35Z</time>
      </trkpt>
      <trkpt lat="50.32064" lon="3.35445">
        <ele>28.274</ele>
        <time>2011-11-06T10:45:37Z</time>
      </trkpt>
      <trkpt lat="50.32063" lon="3.35436">
        <ele>28.354</ele>
        <time>2011-11-06T10:45:39Z</time>
      </trkpt>
      <trkpt lat="50.32052" lon="3.35384">
        <ele>25.754</ele>
        <time>2011-11-06T10:45:44Z</time>
      </trkpt>
      <trkpt lat="50.32035" lon="3.35379">
        <ele>27.448</ele>
        <time>2011-11-06T10:45:49Z</time>
      </trkpt>
      <trkpt lat="50.32019" lon="3.35374">
        <ele>28.803</ele>
        <time>2011-11-06T10:45:55Z</time>
      </trkpt>
      <trkpt lat="50.32047" lon="3.35383">
        <ele>28.155</ele>
        <time>2011-11-06T10:46:01Z</time>
      </trkpt>
      <trkpt lat="50.32008" lon="3.35291">
        <ele>29.129</ele>
        <time>2011-11-06T10:46:15Z</time>
      </trkpt>
      <trkpt lat="50.31994" lon="3.35246">
        <ele>29.652</ele>
        <time>2011-11-06T10:46:27Z</time>
      </trkpt>
      <trkpt lat="50.32002" lon="3.35197">
        <ele>29.578</ele>
        <time>2011-11-06T10:46:39Z</time>
      </trkpt>
      <trkpt lat="50.32032" lon="3.35212">
        <ele>27.71</ele>
        <time>2011-11-06T10:46:50Z</time>
      </trkpt>
      <trkpt lat="50.32078" lon="3.35232">
        <ele>25.17</ele>
        <time>2011-11-06T10:47:05Z</time>
      </trkpt>
      <trkpt lat="50.32109" lon="3.35242">
        <ele>23.016</ele>
        <time>2011-11-06T10:47:09Z</time>
      </trkpt>
      <trkpt lat="50.32112" lon="3.35234">
        <ele>24.225</ele>
        <time>2011-11-06T10:47:14Z</time>
      </trkpt>
      <trkpt lat="50.32126" lon="3.35252">
        <ele>25.645</ele>
        <time>2011-11-06T10:47:19Z</time>
      </trkpt>
      <trkpt lat="50.32138" lon="3.35266">
        <ele>27.004</ele>
        <time>2011-11-06T10:47:24Z</time>
      </trkpt>
      <trkpt lat="50.32177" lon="3.35312">
        <ele>27.787</ele>
        <time>2011-11-06T10:47:40Z</time>
      </trkpt>
      <trkpt lat="50.32203" lon="3.35367">
        <ele>23.757</ele>
        <time>2011-11-06T10:47:50Z</time>
      </trkpt>
      <trkpt lat="50.32218" lon="3.35345">
        <ele>22.61</ele>
        <time>2011-11-06T10:47:52Z</time>
      </trkpt>
      <trkpt lat="50.32222" lon="3.3535">
        <ele>23.82</ele>
        <time>2011-11-06T10:47:53Z</time>
      </trkpt>
      <trkpt lat="50.32225" lon="3.35363">
        <ele>24.459</ele>
        <time>2011-11-06T10:47:55Z</time>
      </trkpt>
      <trkpt lat="50.32257" lon="3.35371">
        <ele>24.119</ele>
        <time>2011-11-06T10:48:02Z</time>
      </trkpt>
      <trkpt lat="50.32273" lon="3.35375">
        <ele>25.121</ele>
        <time>2011-11-06T10:48:14Z</time>
      </trkpt>
      <trkpt lat="50.32273" lon="3.35375">
        <ele>25.021</ele>
        <time>2011-11-06T10:48:16Z</time>
      </trkpt>
      <trkpt lat="50.32273" lon="3.35375">
        <ele>25.785</ele>
        <time>2011-11-06T10:48:40Z</time>
      </trkpt>
      <trkpt lat="50.32273" lon="3.35375">
        <ele>25.48</ele>
        <time>2011-11-06T10:48:51Z</time>
      </trkpt>
      <trkpt lat="50.32273" lon="3.35375">
        <ele>25.449</ele>
        <time>2011-11-06T10:48:53Z</time>
      </trkpt>
      <trkpt lat="50.32273" lon="3.35375">
        <ele>28.155</ele>
        <time>2011-11-06T10:49:05Z</time>
      </trkpt>
      <trkpt lat="50.32273" lon="3.35375">
        <ele>30.238</ele>
        <time>2011-11-06T10:49:20Z</time>
      </trkpt>
      <trkpt lat="50.32273" lon="3.35375">
        <ele>30.141</ele>
        <time>2011-11-06T10:49:24Z</time>
      </trkpt>
      <trkpt lat="50.32273" lon="3.35375">
        <ele>30.743</ele>
        <time>2011-11-06T10:49:43Z</time>
      </trkpt>
      <trkpt lat="50.32273" lon="3.35375">
        <ele>30.564</ele>
        <time>2011-11-06T10:49:48Z</time>
      </trkpt>
      <trkpt lat="50.32273" lon="3.35375">
        <ele>31.104</ele>
        <time>2011-11-06T10:49:52Z</time>
      </trkpt>
      <trkpt lat="50.32308" lon="3.35346">
        <ele>30.667</ele>
        <time>2011-11-06T10:49:55Z</time>
      </trkpt>
      <trkpt lat="50.32335" lon="3.35306">
        <ele>30.636</ele>
        <time>2011-11-06T10:50:12Z</time>
      </trkpt>
      <trkpt lat="50.32357" lon="3.35225">
        <ele>30.274</ele>
        <time>2011-11-06T10:50:31Z</time>
      </trkpt>
      <trkpt lat="50.32358" lon="3.35133">
        <ele>30.701</ele>
        <time>2011-11-06T10:50:49Z</time>
      </trkpt>
      <trkpt lat="50.32359" lon="3.35055">
        <ele>30.404</ele>
        <time>2011-11-06T10:51:04Z</time>
      </trkpt>
      <trkpt lat="50.3236" lon="3.34961">
        <ele>29.817</ele>
        <time>2011-11-06T10:51:22Z</time>
      </trkpt>
      <trkpt lat="50.32361" lon="3.34931">
        <ele>28.835</ele>
        <time>2011-11-06T10:51:27Z</time>
      </trkpt>
      <trkpt lat="50.32378" lon="3.34935">
        <ele>26.914</ele>
        <time>2011-11-06T10:51:34Z</time>
      </trkpt>
      <trkpt lat="50.32424" lon="3.35031">
        <ele>28.638</ele>
        <time>2011-11-06T10:51:53Z</time>
      </trkpt>
      <trkpt lat="50.32448" lon="3.35083">
        <ele>28.51</ele>
        <time>2011-11-06T10:52:04Z</time>
      </trkpt>
      <trkpt lat="50.32482" lon="3.35157">
        <ele>30.177</ele>
        <time>2011-11-06T10:52:20Z</time>
      </trkpt>
      <trkpt lat="50.3252" lon="3.35238">
        <ele>29.092</ele>
        <time>2011-11-06T10:52:37Z</time>
      </trkpt>
      <trkpt lat="50.32537" lon="3.35297">
        <ele>28.743</ele>
        <time>2011-11-06T10:52:49Z</time>
      </trkpt>
      <trkpt lat="50.3254" lon="3.35305">
        <ele>29.379</ele>
        <time>2011-11-06T10:52:51Z</time>
      </trkpt>
      <trkpt lat="50.32534" lon="3.3539">
        <ele>29.532</ele>
        <time>2011-11-06T10:53:10Z</time>
      </trkpt>
      <trkpt lat="50.3253" lon="3.35438">
        <ele>30.066</ele>
        <time>2011-11-06T10:53:20Z</time>
      </trkpt>
      <trkpt lat="50.32537" lon="3.35438">
        <ele>28.72</ele>
        <time>2011-11-06T10:53:27Z</time>
      </trkpt>
      <trkpt lat="50.32544" lon="3.35413">
        <ele>29.896</ele>
        <time>2011-11-06T10:53:33Z</time>
      </trkpt>
      <trkpt lat="50.32553" lon="3.3533">
        <ele>29.375</ele>
        <time>2011-11-06T10:53:47Z</time>
      </trkpt>
      <trkpt lat="50.32579" lon="3.35232">
        <ele>28.559</ele>
        <time>2011-11-06T10:54:04Z</time>
      </trkpt>
      <trkpt lat="50.32599" lon="3.35149">
        <ele>24.967</ele>
        <time>2011-11-06T10:54:17Z</time>
      </trkpt>
      <trkpt lat="50.32622" lon="3.34997">
        <ele>23.273</ele>
        <time>2011-11-06T10:54:39Z</time>
      </trkpt>
      <trkpt lat="50.32653" lon="3.34779">
        <ele>20.985</ele>
        <time>2011-11-06T10:55:06Z</time>
      </trkpt>
      <trkpt lat="50.32667" lon="3.34591">
        <ele>21.602</ele>
        <time>2011-11-06T10:55:30Z</time>
      </trkpt>
      <trkpt lat="50.32673" lon="3.34436">
        <ele>20.506</ele>
        <time>2011-11-06T10:55:49Z</time>
      </trkpt>
      <trkpt lat="50.32677" lon="3.34409">
        <ele>21.288</ele>
        <time>2011-11-06T10:55:53Z</time>
      </trkpt>
      <trkpt lat="50.32685" lon="3.34377">
        <ele>20.512</ele>
        <time>2011-11-06T10:55:58Z</time>
      </trkpt>
      <trkpt lat="50.32689" lon="3.34364">
        <ele>20.639</ele>
        <time>2011-11-06T10:56:04Z</time>
      </trkpt>
      <trkpt lat="50.32705" lon="3.34331">
        <ele>19.36</ele>
        <time>2011-11-06T10:56:07Z</time>
      </trkpt>
      <trkpt lat="50.32722" lon="3.34342">
        <ele>20.505</ele>
        <time>2011-11-06T10:56:09Z</time>
      </trkpt>
      <trkpt lat="50.32723" lon="3.34308">
        <ele>21.662</ele>
        <time>2011-11-06T10:56:16Z</time>
      </trkpt>
      <trkpt lat="50.32723" lon="3.34293">
        <ele>21.983</ele>
        <time>2011-11-06T10:56:20Z</time>
      </trkpt>
      <trkpt lat="50.32726" lon="3.34258">
        <ele>21.372</ele>
        <time>2011-11-06T10:56:24Z</time>
      </trkpt>
      <trkpt lat="50.32768" lon="3.3412">
        <ele>22.81</ele>
        <time>2011-11-06T10:56:45Z</time>
      </trkpt>
      <trkpt lat="50.32795" lon="3.33984">
        <ele>23.885</ele>
        <time>2011-11-06T10:57:04Z</time>
      </trkpt>
      <trkpt lat="50.32811" lon="3.33867">
        <ele>24.133</ele>
        <time>2011-11-06T10:57:21Z</time>
      </trkpt>
      <trkpt lat="50.32819" lon="3.33813">
        <ele>24.892</ele>
        <time>2011-11-06T10:57:31Z</time>
      </trkpt>
      <trkpt lat="50.32846" lon="3.33731">
        <ele>23.935</ele>
        <time>2011-11-06T10:57:36Z</time>
      </trkpt>
      <trkpt lat="50.32859" lon="3.33732">
        <ele>25.963</ele>
        <time>2011-11-06T10:57:40Z</time>
      </trkpt>
      <trkpt lat="50.32828" lon="3.33747">
        <ele>24.783</ele>
        <time>2011-11-06T10:57:44Z</time>
      </trkpt>
      <trkpt lat="50.32877" lon="3.33737">
        <ele>24.251</ele>
        <time>2011-11-06T10:57:51Z</time>
      </trkpt>
      <trkpt lat="50.32937" lon="3.3378">
        <ele>25.051</ele>
        <time>2011-11-06T10:58:03Z</time>
      </trkpt>
      <trkpt lat="50.32955" lon="3.33794">
        <ele>22.829</ele>
        <time>2011-11-06T10:58:07Z</time>
      </trkpt>
      <trkpt lat="50.33054" lon="3.33872">
        <ele>24.445</ele>
        <time>2011-11-06T10:58:30Z</time>
      </trkpt>
      <trkpt lat="50.33096" lon="3.33905">
        <ele>23.066</ele>
        <time>2011-11-06T10:58:42Z</time>
      </trkpt>
      <trkpt lat="50.33164" lon="3.33946">
        <ele>23.718</ele>
        <time>2011-11-06T10:59:00Z</time>
      </trkpt>
      <trkpt lat="50.33166" lon="3.33945">
        <ele>23.718</ele>
        <time>2011-11-06T10:59:01Z</time>
      </trkpt>
      <trkpt lat="50.33187" lon="3.33929">
        <ele>23.478</ele>
        <time>2011-11-06T10:59:08Z</time>
      </trkpt>
      <trkpt lat="50.33217" lon="3.33784">
        <ele>23.486</ele>
        <time>2011-11-06T10:59:30Z</time>
      </trkpt>
      <trkpt lat="50.33233" lon="3.33695">
        <ele>24.764</ele>
        <time>2011-11-06T10:59:46Z</time>
      </trkpt>
      <trkpt lat="50.33247" lon="3.33652">
        <ele>24.809</ele>
        <time>2011-11-06T10:59:59Z</time>
      </trkpt>
      <trkpt lat="50.33264" lon="3.33696">
        <ele>25.236</ele>
        <time>2011-11-06T11:00:11Z</time>
      </trkpt>
    </trkseg>
  </trk>
</gpx>